<?xml version='1.0' encoding='UTF-8'?><gpx version="1.1" creator="JPX - https://github.com/jenetics/jpx" xmlns="http://www.topografix.com/GPX/1/1"><trk><trkseg><trkpt lat="43.0917519" lon="10.5391299"><ele>6.0</ele><time>2026-04-19T13:52:20.134Z</time></trkpt><trkpt lat="43.0918151" lon="10.5391536"><ele>6.0</ele><time>2026-04-19T13:52:21.137Z</time></trkpt><trkpt lat="43.0916535" lon="10.5393628"><ele>6.0</ele><time>2026-04-19T13:52:41.138Z</time></trkpt><trkpt lat="43.0917006" lon="10.539667"><ele>6.0</ele><time>2026-04-19T13:52:49.158Z</time></trkpt><trkpt lat="43.0917886" lon="10.5396691"><ele>6.0</ele><time>2026-04-19T13:52:50.144Z</time></trkpt><trkpt lat="43.0918786" lon="10.5396716"><ele>6.0</ele><time>2026-04-19T13:52:51.13Z</time></trkpt><trkpt lat="43.0919701" lon="10.5396739"><ele>6.0</ele><time>2026-04-19T13:52:52.133Z</time></trkpt><trkpt lat="43.092054" lon="10.5396753"><ele>6.0</ele><time>2026-04-19T13:52:53.133Z</time></trkpt><trkpt lat="43.0921244" lon="10.5396783"><ele>6.0</ele><time>2026-04-19T13:52:54.143Z</time></trkpt><trkpt lat="43.0921923" lon="10.5396704"><ele>6.0</ele><time>2026-04-19T13:52:55.143Z</time></trkpt><trkpt lat="43.0922743" lon="10.5396564"><ele>6.0</ele><time>2026-04-19T13:52:56.133Z</time></trkpt><trkpt lat="43.0923734" lon="10.5396333"><ele>6.0</ele><time>2026-04-19T13:52:57.134Z</time></trkpt><trkpt lat="43.0924884" lon="10.5396151"><ele>6.0</ele><time>2026-04-19T13:52:58.16Z</time></trkpt><trkpt lat="43.0926112" lon="10.5395997"><ele>6.0</ele><time>2026-04-19T13:52:59.136Z</time></trkpt><trkpt lat="43.0927269" lon="10.539582"><ele>6.0</ele><time>2026-04-19T13:53:00.142Z</time></trkpt><trkpt lat="43.0928343" lon="10.5395657"><ele>6.0</ele><time>2026-04-19T13:53:01.134Z</time></trkpt><trkpt lat="43.0929295" lon="10.5395511"><ele>6.0</ele><time>2026-04-19T13:53:02.132Z</time></trkpt><trkpt lat="43.0930139" lon="10.539535"><ele>6.0</ele><time>2026-04-19T13:53:03.136Z</time></trkpt><trkpt lat="43.0930914" lon="10.5395263"><ele>6.0</ele><time>2026-04-19T13:53:04.134Z</time></trkpt><trkpt lat="43.0931637" lon="10.5395203"><ele>6.0</ele><time>2026-04-19T13:53:05.164Z</time></trkpt><trkpt lat="43.0932844" lon="10.5395211"><ele>6.0</ele><time>2026-04-19T13:53:07.136Z</time></trkpt><trkpt lat="43.0933868" lon="10.5395515"><ele>6.0</ele><time>2026-04-19T13:53:09.139Z</time></trkpt><trkpt lat="43.0934791" lon="10.5396309"><ele>6.0</ele><time>2026-04-19T13:53:11.136Z</time></trkpt><trkpt lat="43.0935561" lon="10.5397726"><ele>6.0</ele><time>2026-04-19T13:53:13.129Z</time></trkpt><trkpt lat="43.0935756" lon="10.5398657"><ele>6.0</ele><time>2026-04-19T13:53:14.132Z</time></trkpt><trkpt lat="43.0935863" lon="10.539963"><ele>6.0</ele><time>2026-04-19T13:53:15.139Z</time></trkpt><trkpt lat="43.0935797" lon="10.5400517"><ele>6.0</ele><time>2026-04-19T13:53:16.131Z</time></trkpt><trkpt lat="43.0935639" lon="10.5402123"><ele>6.0</ele><time>2026-04-19T13:53:18.135Z</time></trkpt><trkpt lat="43.0935874" lon="10.540355"><ele>6.0</ele><time>2026-04-19T13:53:20.136Z</time></trkpt><trkpt lat="43.0936067" lon="10.5405144"><ele>6.0</ele><time>2026-04-19T13:53:22.132Z</time></trkpt><trkpt lat="43.093611" lon="10.5406368"><ele>6.199999999999999</ele><time>2026-04-19T13:53:24.142Z</time></trkpt><trkpt lat="43.0936214" lon="10.5407796"><ele>6.3999999999999995</ele><time>2026-04-19T13:53:26.135Z</time></trkpt><trkpt lat="43.0936208" lon="10.5408831"><ele>6.6</ele><time>2026-04-19T13:53:27.134Z</time></trkpt><trkpt lat="43.0936247" lon="10.5410096"><ele>6.8</ele><time>2026-04-19T13:53:28.137Z</time></trkpt><trkpt lat="43.093631" lon="10.5411526"><ele>7.0</ele><time>2026-04-19T13:53:29.14Z</time></trkpt><trkpt lat="43.093637" lon="10.5413001"><ele>7.3999999999999995</ele><time>2026-04-19T13:53:30.146Z</time></trkpt><trkpt lat="43.0936432" lon="10.5414393"><ele>7.799999999999999</ele><time>2026-04-19T13:53:31.143Z</time></trkpt><trkpt lat="43.0936546" lon="10.5415734"><ele>8.2</ele><time>2026-04-19T13:53:32.168Z</time></trkpt><trkpt lat="43.0936643" lon="10.5417023"><ele>8.6</ele><time>2026-04-19T13:53:33.135Z</time></trkpt><trkpt lat="43.0936679" lon="10.5418297"><ele>9.0</ele><time>2026-04-19T13:53:34.134Z</time></trkpt><trkpt lat="43.0936676" lon="10.5419495"><ele>9.166666666666666</ele><time>2026-04-19T13:53:35.146Z</time></trkpt><trkpt lat="43.0936622" lon="10.5420639"><ele>9.333333333333334</ele><time>2026-04-19T13:53:36.133Z</time></trkpt><trkpt lat="43.0936561" lon="10.5421689"><ele>9.5</ele><time>2026-04-19T13:53:37.137Z</time></trkpt><trkpt lat="43.0936492" lon="10.5422665"><ele>9.666666666666668</ele><time>2026-04-19T13:53:38.14Z</time></trkpt><trkpt lat="43.0936459" lon="10.5423572"><ele>9.833333333333334</ele><time>2026-04-19T13:53:39.136Z</time></trkpt><trkpt lat="43.0936827" lon="10.5424768"><ele>10.0</ele><time>2026-04-19T13:53:41.141Z</time></trkpt><trkpt lat="43.0937879" lon="10.5424533"><ele>10.0</ele><time>2026-04-19T13:53:43.168Z</time></trkpt><trkpt lat="43.0938432" lon="10.5424043"><ele>10.0</ele><time>2026-04-19T13:53:44.138Z</time></trkpt><trkpt lat="43.093903" lon="10.5423471"><ele>10.0</ele><time>2026-04-19T13:53:45.166Z</time></trkpt><trkpt lat="43.0939735" lon="10.5422851"><ele>10.0</ele><time>2026-04-19T13:53:46.136Z</time></trkpt><trkpt lat="43.0940474" lon="10.5422271"><ele>10.0</ele><time>2026-04-19T13:53:47.138Z</time></trkpt><trkpt lat="43.0941172" lon="10.5421777"><ele>10.0</ele><time>2026-04-19T13:53:48.138Z</time></trkpt><trkpt lat="43.094187" lon="10.5421272"><ele>10.0</ele><time>2026-04-19T13:53:49.13Z</time></trkpt><trkpt lat="43.0942563" lon="10.5420663"><ele>10.0</ele><time>2026-04-19T13:53:50.168Z</time></trkpt><trkpt lat="43.0943321" lon="10.5420244"><ele>10.0</ele><time>2026-04-19T13:53:51.137Z</time></trkpt><trkpt lat="43.0944023" lon="10.5419783"><ele>10.0</ele><time>2026-04-19T13:53:52.142Z</time></trkpt><trkpt lat="43.0944684" lon="10.5419273"><ele>10.0</ele><time>2026-04-19T13:53:53.134Z</time></trkpt><trkpt lat="43.0945362" lon="10.5418793"><ele>10.0</ele><time>2026-04-19T13:53:54.134Z</time></trkpt><trkpt lat="43.0946049" lon="10.5418327"><ele>9.833333333333334</ele><time>2026-04-19T13:53:55.135Z</time></trkpt><trkpt lat="43.0946782" lon="10.5417895"><ele>9.666666666666668</ele><time>2026-04-19T13:53:56.136Z</time></trkpt><trkpt lat="43.094744" lon="10.5417407"><ele>9.5</ele><time>2026-04-19T13:53:57.133Z</time></trkpt><trkpt lat="43.0948088" lon="10.5416953"><ele>9.333333333333334</ele><time>2026-04-19T13:53:58.164Z</time></trkpt><trkpt lat="43.0948773" lon="10.541656"><ele>9.166666666666666</ele><time>2026-04-19T13:53:59.14Z</time></trkpt><trkpt lat="43.09495" lon="10.54162"><ele>9.0</ele><time>2026-04-19T13:54:00.162Z</time></trkpt><trkpt lat="43.0950225" lon="10.5415739"><ele>9.0</ele><time>2026-04-19T13:54:01.133Z</time></trkpt><trkpt lat="43.0950878" lon="10.54152"><ele>9.0</ele><time>2026-04-19T13:54:02.133Z</time></trkpt><trkpt lat="43.0951557" lon="10.541471"><ele>9.0</ele><time>2026-04-19T13:54:03.134Z</time></trkpt><trkpt lat="43.095229" lon="10.5414308"><ele>9.0</ele><time>2026-04-19T13:54:04.143Z</time></trkpt><trkpt lat="43.09531" lon="10.5413848"><ele>9.0</ele><time>2026-04-19T13:54:05.146Z</time></trkpt><trkpt lat="43.0953892" lon="10.5413342"><ele>9.0</ele><time>2026-04-19T13:54:06.136Z</time></trkpt><trkpt lat="43.0954669" lon="10.5412804"><ele>9.0</ele><time>2026-04-19T13:54:07.172Z</time></trkpt><trkpt lat="43.0955389" lon="10.5412353"><ele>9.0</ele><time>2026-04-19T13:54:08.134Z</time></trkpt><trkpt lat="43.0956112" lon="10.5411856"><ele>9.0</ele><time>2026-04-19T13:54:09.135Z</time></trkpt><trkpt lat="43.0956831" lon="10.5411306"><ele>9.0</ele><time>2026-04-19T13:54:10.131Z</time></trkpt><trkpt lat="43.0957606" lon="10.5410764"><ele>9.0</ele><time>2026-04-19T13:54:11.143Z</time></trkpt><trkpt lat="43.095844" lon="10.5410249"><ele>9.0</ele><time>2026-04-19T13:54:12.168Z</time></trkpt><trkpt lat="43.0959283" lon="10.540969"><ele>8.8</ele><time>2026-04-19T13:54:13.135Z</time></trkpt><trkpt lat="43.096014" lon="10.5409105"><ele>8.600000000000001</ele><time>2026-04-19T13:54:14.14Z</time></trkpt><trkpt lat="43.0961037" lon="10.540846"><ele>8.4</ele><time>2026-04-19T13:54:15.132Z</time></trkpt><trkpt lat="43.0962014" lon="10.5407837"><ele>8.200000000000001</ele><time>2026-04-19T13:54:16.138Z</time></trkpt><trkpt lat="43.0963023" lon="10.5407196"><ele>8.0</ele><time>2026-04-19T13:54:17.163Z</time></trkpt><trkpt lat="43.096405" lon="10.5406639"><ele>8.0</ele><time>2026-04-19T13:54:18.165Z</time></trkpt><trkpt lat="43.0964996" lon="10.5406165"><ele>8.0</ele><time>2026-04-19T13:54:19.165Z</time></trkpt><trkpt lat="43.0965903" lon="10.5405716"><ele>8.0</ele><time>2026-04-19T13:54:20.165Z</time></trkpt><trkpt lat="43.0966826" lon="10.540539"><ele>8.0</ele><time>2026-04-19T13:54:21.137Z</time></trkpt><trkpt lat="43.0967732" lon="10.540508"><ele>8.0</ele><time>2026-04-19T13:54:22.144Z</time></trkpt><trkpt lat="43.0968614" lon="10.5404774"><ele>8.666666666666666</ele><time>2026-04-19T13:54:23.139Z</time></trkpt><trkpt lat="43.0969507" lon="10.5404508"><ele>9.333333333333332</ele><time>2026-04-19T13:54:24.14Z</time></trkpt><trkpt lat="43.0970368" lon="10.5404301"><ele>10.0</ele><time>2026-04-19T13:54:25.137Z</time></trkpt><trkpt lat="43.0971164" lon="10.5404163"><ele>10.666666666666666</ele><time>2026-04-19T13:54:26.165Z</time></trkpt><trkpt lat="43.0971876" lon="10.5404092"><ele>11.333333333333334</ele><time>2026-04-19T13:54:27.132Z</time></trkpt><trkpt lat="43.0972505" lon="10.5404136"><ele>12.0</ele><time>2026-04-19T13:54:28.175Z</time></trkpt><trkpt lat="43.0973606" lon="10.5404569"><ele>12.399999999999999</ele><time>2026-04-19T13:54:30.139Z</time></trkpt><trkpt lat="43.0974609" lon="10.5405313"><ele>12.799999999999999</ele><time>2026-04-19T13:54:32.164Z</time></trkpt><trkpt lat="43.0975807" lon="10.540509"><ele>13.2</ele><time>2026-04-19T13:54:34.139Z</time></trkpt><trkpt lat="43.0976542" lon="10.5404676"><ele>13.6</ele><time>2026-04-19T13:54:35.138Z</time></trkpt><trkpt lat="43.0977378" lon="10.5404342"><ele>14.0</ele><time>2026-04-19T13:54:36.136Z</time></trkpt><trkpt lat="43.0978282" lon="10.5404215"><ele>14.0</ele><time>2026-04-19T13:54:37.139Z</time></trkpt><trkpt lat="43.0979251" lon="10.5404262"><ele>14.0</ele><time>2026-04-19T13:54:38.135Z</time></trkpt><trkpt lat="43.0980297" lon="10.5404381"><ele>14.0</ele><time>2026-04-19T13:54:39.14Z</time></trkpt><trkpt lat="43.0981482" lon="10.5404576"><ele>14.0</ele><time>2026-04-19T13:54:40.134Z</time></trkpt><trkpt lat="43.0982787" lon="10.5404732"><ele>15.0</ele><time>2026-04-19T13:54:41.147Z</time></trkpt><trkpt lat="43.0984162" lon="10.5404858"><ele>16.0</ele><time>2026-04-19T13:54:42.138Z</time></trkpt><trkpt lat="43.0985616" lon="10.5404955"><ele>17.0</ele><time>2026-04-19T13:54:43.136Z</time></trkpt><trkpt lat="43.0987104" lon="10.540507"><ele>18.0</ele><time>2026-04-19T13:54:44.136Z</time></trkpt><trkpt lat="43.0988599" lon="10.5405222"><ele>18.0</ele><time>2026-04-19T13:54:45.162Z</time></trkpt><trkpt lat="43.0990088" lon="10.5405381"><ele>18.0</ele><time>2026-04-19T13:54:46.168Z</time></trkpt><trkpt lat="43.0991589" lon="10.5405557"><ele>18.0</ele><time>2026-04-19T13:54:47.135Z</time></trkpt><trkpt lat="43.0993095" lon="10.5405734"><ele>19.666666666666668</ele><time>2026-04-19T13:54:48.135Z</time></trkpt><trkpt lat="43.0994598" lon="10.5405886"><ele>21.333333333333336</ele><time>2026-04-19T13:54:49.167Z</time></trkpt><trkpt lat="43.0996098" lon="10.5406036"><ele>23.0</ele><time>2026-04-19T13:54:50.137Z</time></trkpt><trkpt lat="43.0997598" lon="10.5406187"><ele>23.0</ele><time>2026-04-19T13:54:51.138Z</time></trkpt><trkpt lat="43.0999087" lon="10.5406345"><ele>23.0</ele><time>2026-04-19T13:54:52.165Z</time></trkpt><trkpt lat="43.1000551" lon="10.5406523"><ele>23.0</ele><time>2026-04-19T13:54:53.14Z</time></trkpt><trkpt lat="43.1002005" lon="10.5406718"><ele>23.0</ele><time>2026-04-19T13:54:54.139Z</time></trkpt><trkpt lat="43.1003472" lon="10.5406894"><ele>23.25</ele><time>2026-04-19T13:54:55.163Z</time></trkpt><trkpt lat="43.1004925" lon="10.5407038"><ele>23.5</ele><time>2026-04-19T13:54:56.135Z</time></trkpt><trkpt lat="43.1006372" lon="10.5407203"><ele>23.75</ele><time>2026-04-19T13:54:57.138Z</time></trkpt><trkpt lat="43.100782" lon="10.540745"><ele>24.0</ele><time>2026-04-19T13:54:58.139Z</time></trkpt><trkpt lat="43.1009262" lon="10.5407792"><ele>24.0</ele><time>2026-04-19T13:54:59.143Z</time></trkpt><trkpt lat="43.1010695" lon="10.5408229"><ele>24.0</ele><time>2026-04-19T13:55:00.134Z</time></trkpt><trkpt lat="43.1012107" lon="10.5408732"><ele>24.0</ele><time>2026-04-19T13:55:01.141Z</time></trkpt><trkpt lat="43.1013508" lon="10.5409308"><ele>24.0</ele><time>2026-04-19T13:55:02.134Z</time></trkpt><trkpt lat="43.1014915" lon="10.5409952"><ele>22.333333333333332</ele><time>2026-04-19T13:55:03.137Z</time></trkpt><trkpt lat="43.1016353" lon="10.5410631"><ele>20.666666666666664</ele><time>2026-04-19T13:55:04.17Z</time></trkpt><trkpt lat="43.1017805" lon="10.5411353"><ele>19.0</ele><time>2026-04-19T13:55:05.132Z</time></trkpt><trkpt lat="43.1019267" lon="10.541208"><ele>22.333333333333332</ele><time>2026-04-19T13:55:06.142Z</time></trkpt><trkpt lat="43.1020764" lon="10.5412787"><ele>25.666666666666664</ele><time>2026-04-19T13:55:07.14Z</time></trkpt><trkpt lat="43.1022259" lon="10.5413445"><ele>29.0</ele><time>2026-04-19T13:55:08.137Z</time></trkpt><trkpt lat="43.1023711" lon="10.5414038"><ele>27.0</ele><time>2026-04-19T13:55:09.132Z</time></trkpt><trkpt lat="43.1025121" lon="10.5414572"><ele>25.0</ele><time>2026-04-19T13:55:10.169Z</time></trkpt><trkpt lat="43.102651" lon="10.5415017"><ele>23.0</ele><time>2026-04-19T13:55:11.132Z</time></trkpt><trkpt lat="43.1027881" lon="10.5415369"><ele>21.0</ele><time>2026-04-19T13:55:12.167Z</time></trkpt><trkpt lat="43.1029184" lon="10.5415633"><ele>21.0</ele><time>2026-04-19T13:55:13.142Z</time></trkpt><trkpt lat="43.1030465" lon="10.5415841"><ele>21.0</ele><time>2026-04-19T13:55:14.17Z</time></trkpt><trkpt lat="43.1031708" lon="10.5415981"><ele>21.0</ele><time>2026-04-19T13:55:15.142Z</time></trkpt><trkpt lat="43.1032831" lon="10.5416062"><ele>21.0</ele><time>2026-04-19T13:55:16.144Z</time></trkpt><trkpt lat="43.1033811" lon="10.5416033"><ele>20.166666666666668</ele><time>2026-04-19T13:55:17.164Z</time></trkpt><trkpt lat="43.1034732" lon="10.5415986"><ele>19.333333333333332</ele><time>2026-04-19T13:55:18.136Z</time></trkpt><trkpt lat="43.103561" lon="10.54161"><ele>18.5</ele><time>2026-04-19T13:55:19.138Z</time></trkpt><trkpt lat="43.1036395" lon="10.541652"><ele>17.666666666666664</ele><time>2026-04-19T13:55:20.168Z</time></trkpt><trkpt lat="43.1037107" lon="10.5417214"><ele>16.833333333333332</ele><time>2026-04-19T13:55:21.135Z</time></trkpt><trkpt lat="43.1037782" lon="10.5417794"><ele>16.0</ele><time>2026-04-19T13:55:22.136Z</time></trkpt><trkpt lat="43.1038438" lon="10.5418001"><ele>16.0</ele><time>2026-04-19T13:55:23.131Z</time></trkpt><trkpt lat="43.1039115" lon="10.5417651"><ele>16.0</ele><time>2026-04-19T13:55:24.136Z</time></trkpt><trkpt lat="43.1039723" lon="10.5416728"><ele>16.0</ele><time>2026-04-19T13:55:25.138Z</time></trkpt><trkpt lat="43.1040334" lon="10.5415496"><ele>16.0</ele><time>2026-04-19T13:55:26.16Z</time></trkpt><trkpt lat="43.1041092" lon="10.5414495"><ele>16.0</ele><time>2026-04-19T13:55:27.138Z</time></trkpt><trkpt lat="43.1042016" lon="10.5413796"><ele>15.333333333333332</ele><time>2026-04-19T13:55:28.136Z</time></trkpt><trkpt lat="43.1042956" lon="10.5413332"><ele>14.666666666666666</ele><time>2026-04-19T13:55:29.144Z</time></trkpt><trkpt lat="43.1043773" lon="10.5413001"><ele>14.0</ele><time>2026-04-19T13:55:30.164Z</time></trkpt><trkpt lat="43.1044557" lon="10.5412767"><ele>13.333333333333332</ele><time>2026-04-19T13:55:31.136Z</time></trkpt><trkpt lat="43.1045241" lon="10.5412575"><ele>12.666666666666666</ele><time>2026-04-19T13:55:32.135Z</time></trkpt><trkpt lat="43.1046249" lon="10.5412233"><ele>12.0</ele><time>2026-04-19T13:55:34.143Z</time></trkpt><trkpt lat="43.1047175" lon="10.5412195"><ele>12.0</ele><time>2026-04-19T13:55:36.167Z</time></trkpt><trkpt lat="43.1048553" lon="10.5412409"><ele>12.0</ele><time>2026-04-19T13:55:38.136Z</time></trkpt><trkpt lat="43.1049424" lon="10.541218"><ele>12.0</ele><time>2026-04-19T13:55:39.136Z</time></trkpt><trkpt lat="43.105036" lon="10.5411685"><ele>12.0</ele><time>2026-04-19T13:55:40.164Z</time></trkpt><trkpt lat="43.1051289" lon="10.541105"><ele>12.0</ele><time>2026-04-19T13:55:41.141Z</time></trkpt><trkpt lat="43.1052147" lon="10.541043"><ele>11.166666666666666</ele><time>2026-04-19T13:55:42.134Z</time></trkpt><trkpt lat="43.1052959" lon="10.5409904"><ele>10.333333333333334</ele><time>2026-04-19T13:55:43.139Z</time></trkpt><trkpt lat="43.1053735" lon="10.5409474"><ele>9.5</ele><time>2026-04-19T13:55:44.132Z</time></trkpt><trkpt lat="43.1054478" lon="10.54091"><ele>8.666666666666668</ele><time>2026-04-19T13:55:45.141Z</time></trkpt><trkpt lat="43.1055266" lon="10.5408812"><ele>7.833333333333334</ele><time>2026-04-19T13:55:46.169Z</time></trkpt><trkpt lat="43.1056081" lon="10.5408564"><ele>7.0</ele><time>2026-04-19T13:55:47.134Z</time></trkpt><trkpt lat="43.1056888" lon="10.5408314"><ele>6.8</ele><time>2026-04-19T13:55:48.14Z</time></trkpt><trkpt lat="43.1057755" lon="10.5408051"><ele>6.6</ele><time>2026-04-19T13:55:49.136Z</time></trkpt><trkpt lat="43.1058763" lon="10.5407783"><ele>6.3999999999999995</ele><time>2026-04-19T13:55:50.159Z</time></trkpt><trkpt lat="43.105994" lon="10.5407564"><ele>6.199999999999999</ele><time>2026-04-19T13:55:51.138Z</time></trkpt><trkpt lat="43.1061276" lon="10.5407449"><ele>6.0</ele><time>2026-04-19T13:55:52.141Z</time></trkpt><trkpt lat="43.1062664" lon="10.540746"><ele>6.0</ele><time>2026-04-19T13:55:53.131Z</time></trkpt><trkpt lat="43.106408" lon="10.5407579"><ele>6.0</ele><time>2026-04-19T13:55:54.135Z</time></trkpt><trkpt lat="43.1065559" lon="10.5407772"><ele>6.0</ele><time>2026-04-19T13:55:55.137Z</time></trkpt><trkpt lat="43.1067071" lon="10.5408086"><ele>6.0</ele><time>2026-04-19T13:55:56.138Z</time></trkpt><trkpt lat="43.1068571" lon="10.5408545"><ele>5.666666666666667</ele><time>2026-04-19T13:55:57.146Z</time></trkpt><trkpt lat="43.1070099" lon="10.540909"><ele>5.333333333333334</ele><time>2026-04-19T13:55:58.169Z</time></trkpt><trkpt lat="43.1071723" lon="10.5409654"><ele>5.0</ele><time>2026-04-19T13:55:59.136Z</time></trkpt><trkpt lat="43.107337" lon="10.54103"><ele>5.333333333333334</ele><time>2026-04-19T13:56:00.138Z</time></trkpt><trkpt lat="43.1074999" lon="10.5410972"><ele>5.666666666666667</ele><time>2026-04-19T13:56:01.139Z</time></trkpt><trkpt lat="43.1076532" lon="10.5411562"><ele>6.0</ele><time>2026-04-19T13:56:02.136Z</time></trkpt><trkpt lat="43.1077952" lon="10.5412089"><ele>5.75</ele><time>2026-04-19T13:56:03.137Z</time></trkpt><trkpt lat="43.107929" lon="10.5412572"><ele>5.5</ele><time>2026-04-19T13:56:04.134Z</time></trkpt><trkpt lat="43.1080596" lon="10.5413027"><ele>5.25</ele><time>2026-04-19T13:56:05.133Z</time></trkpt><trkpt lat="43.1081895" lon="10.5413485"><ele>5.0</ele><time>2026-04-19T13:56:06.137Z</time></trkpt><trkpt lat="43.1083194" lon="10.5413932"><ele>5.75</ele><time>2026-04-19T13:56:07.137Z</time></trkpt><trkpt lat="43.1084453" lon="10.541439"><ele>6.5</ele><time>2026-04-19T13:56:08.14Z</time></trkpt><trkpt lat="43.1085738" lon="10.5414862"><ele>7.25</ele><time>2026-04-19T13:56:09.149Z</time></trkpt><trkpt lat="43.1087048" lon="10.5415311"><ele>8.0</ele><time>2026-04-19T13:56:10.137Z</time></trkpt><trkpt lat="43.1088368" lon="10.5415747"><ele>8.0</ele><time>2026-04-19T13:56:11.138Z</time></trkpt><trkpt lat="43.1089716" lon="10.5416212"><ele>8.0</ele><time>2026-04-19T13:56:12.137Z</time></trkpt><trkpt lat="43.1091086" lon="10.5416709"><ele>8.0</ele><time>2026-04-19T13:56:13.173Z</time></trkpt><trkpt lat="43.1092452" lon="10.5417239"><ele>8.0</ele><time>2026-04-19T13:56:14.168Z</time></trkpt><trkpt lat="43.1093793" lon="10.5417764"><ele>7.5</ele><time>2026-04-19T13:56:15.137Z</time></trkpt><trkpt lat="43.1095123" lon="10.5418272"><ele>7.0</ele><time>2026-04-19T13:56:16.133Z</time></trkpt><trkpt lat="43.1096447" lon="10.5418759"><ele>6.5</ele><time>2026-04-19T13:56:17.141Z</time></trkpt><trkpt lat="43.1097787" lon="10.5419243"><ele>6.0</ele><time>2026-04-19T13:56:18.134Z</time></trkpt><trkpt lat="43.1099125" lon="10.5419739"><ele>6.0</ele><time>2026-04-19T13:56:19.163Z</time></trkpt><trkpt lat="43.1100423" lon="10.5420251"><ele>6.0</ele><time>2026-04-19T13:56:20.136Z</time></trkpt><trkpt lat="43.1101743" lon="10.5420745"><ele>6.0</ele><time>2026-04-19T13:56:21.136Z</time></trkpt><trkpt lat="43.1103102" lon="10.5421236"><ele>6.0</ele><time>2026-04-19T13:56:22.131Z</time></trkpt><trkpt lat="43.1107444" lon="10.5422734"><ele>6.5</ele><time>2026-04-19T13:56:25.135Z</time></trkpt><trkpt lat="43.1110635" lon="10.5423807"><ele>7.0</ele><time>2026-04-19T13:56:27.166Z</time></trkpt><trkpt lat="43.1112308" lon="10.5424373"><ele>7.0</ele><time>2026-04-19T13:56:28.132Z</time></trkpt><trkpt lat="43.111567" lon="10.5425539"><ele>7.0</ele><time>2026-04-19T13:56:30.135Z</time></trkpt><trkpt lat="43.1120807" lon="10.54273"><ele>6.0</ele><time>2026-04-19T13:56:33.167Z</time></trkpt><trkpt lat="43.112597" lon="10.5429138"><ele>6.0</ele><time>2026-04-19T13:56:36.153Z</time></trkpt><trkpt lat="43.1127695" lon="10.5429739"><ele>6.0</ele><time>2026-04-19T13:56:37.14Z</time></trkpt><trkpt lat="43.1129433" lon="10.5430344"><ele>6.0</ele><time>2026-04-19T13:56:38.137Z</time></trkpt><trkpt lat="43.1131186" lon="10.5430967"><ele>5.666666666666667</ele><time>2026-04-19T13:56:39.138Z</time></trkpt><trkpt lat="43.1132935" lon="10.5431615"><ele>5.333333333333334</ele><time>2026-04-19T13:56:40.133Z</time></trkpt><trkpt lat="43.1134677" lon="10.5432261"><ele>5.0</ele><time>2026-04-19T13:56:41.167Z</time></trkpt><trkpt lat="43.1136423" lon="10.5432907"><ele>5.0</ele><time>2026-04-19T13:56:42.163Z</time></trkpt><trkpt lat="43.113818" lon="10.5433562"><ele>5.0</ele><time>2026-04-19T13:56:43.134Z</time></trkpt><trkpt lat="43.1139904" lon="10.5434138"><ele>5.0</ele><time>2026-04-19T13:56:44.145Z</time></trkpt><trkpt lat="43.114165" lon="10.5434709"><ele>5.666666666666667</ele><time>2026-04-19T13:56:45.143Z</time></trkpt><trkpt lat="43.1143474" lon="10.5435315"><ele>6.333333333333334</ele><time>2026-04-19T13:56:46.165Z</time></trkpt><trkpt lat="43.11453" lon="10.5435912"><ele>7.0</ele><time>2026-04-19T13:56:47.139Z</time></trkpt><trkpt lat="43.114711" lon="10.5436538"><ele>8.0</ele><time>2026-04-19T13:56:48.147Z</time></trkpt><trkpt lat="43.114891" lon="10.5437145"><ele>9.0</ele><time>2026-04-19T13:56:49.163Z</time></trkpt><trkpt lat="43.1150709" lon="10.5437782"><ele>10.0</ele><time>2026-04-19T13:56:50.174Z</time></trkpt><trkpt lat="43.1152515" lon="10.543847"><ele>10.0</ele><time>2026-04-19T13:56:51.178Z</time></trkpt><trkpt lat="43.1154298" lon="10.5439158"><ele>10.0</ele><time>2026-04-19T13:56:52.169Z</time></trkpt><trkpt lat="43.1156089" lon="10.5439803"><ele>10.0</ele><time>2026-04-19T13:56:53.135Z</time></trkpt><trkpt lat="43.1157844" lon="10.5440391"><ele>10.0</ele><time>2026-04-19T13:56:54.145Z</time></trkpt><trkpt lat="43.1159525" lon="10.5440937"><ele>10.0</ele><time>2026-04-19T13:56:55.152Z</time></trkpt><trkpt lat="43.116121" lon="10.5441415"><ele>10.0</ele><time>2026-04-19T13:56:56.137Z</time></trkpt><trkpt lat="43.1162925" lon="10.5441718"><ele>10.0</ele><time>2026-04-19T13:56:57.136Z</time></trkpt><trkpt lat="43.1164698" lon="10.5441708"><ele>10.0</ele><time>2026-04-19T13:56:58.142Z</time></trkpt><trkpt lat="43.116651" lon="10.5441325"><ele>10.0</ele><time>2026-04-19T13:56:59.159Z</time></trkpt><trkpt lat="43.1168333" lon="10.5440689"><ele>9.666666666666668</ele><time>2026-04-19T13:57:00.136Z</time></trkpt><trkpt lat="43.1170136" lon="10.5439913"><ele>9.333333333333334</ele><time>2026-04-19T13:57:01.149Z</time></trkpt><trkpt lat="43.117192" lon="10.5439079"><ele>9.0</ele><time>2026-04-19T13:57:02.138Z</time></trkpt><trkpt lat="43.1173649" lon="10.5438326"><ele>9.333333333333334</ele><time>2026-04-19T13:57:03.141Z</time></trkpt><trkpt lat="43.1175342" lon="10.5437627"><ele>9.666666666666668</ele><time>2026-04-19T13:57:04.153Z</time></trkpt><trkpt lat="43.1177029" lon="10.5436959"><ele>10.0</ele><time>2026-04-19T13:57:05.157Z</time></trkpt><trkpt lat="43.1178697" lon="10.5436379"><ele>9.333333333333334</ele><time>2026-04-19T13:57:06.18Z</time></trkpt><trkpt lat="43.1180298" lon="10.5435837"><ele>8.666666666666666</ele><time>2026-04-19T13:57:07.152Z</time></trkpt><trkpt lat="43.1181837" lon="10.54354"><ele>8.0</ele><time>2026-04-19T13:57:08.143Z</time></trkpt><trkpt lat="43.1183292" lon="10.5435132"><ele>8.0</ele><time>2026-04-19T13:57:09.137Z</time></trkpt><trkpt lat="43.1184695" lon="10.5435307"><ele>8.0</ele><time>2026-04-19T13:57:10.136Z</time></trkpt><trkpt lat="43.118606" lon="10.5436011"><ele>8.0</ele><time>2026-04-19T13:57:11.167Z</time></trkpt><trkpt lat="43.1187329" lon="10.5437196"><ele>8.0</ele><time>2026-04-19T13:57:12.136Z</time></trkpt><trkpt lat="43.1188356" lon="10.5438731"><ele>8.666666666666666</ele><time>2026-04-19T13:57:13.152Z</time></trkpt><trkpt lat="43.1189071" lon="10.5440701"><ele>9.333333333333334</ele><time>2026-04-19T13:57:14.144Z</time></trkpt><trkpt lat="43.1189511" lon="10.5442905"><ele>10.0</ele><time>2026-04-19T13:57:15.147Z</time></trkpt><trkpt lat="43.1189854" lon="10.5445143"><ele>10.666666666666668</ele><time>2026-04-19T13:57:16.171Z</time></trkpt><trkpt lat="43.1190197" lon="10.5447246"><ele>11.333333333333334</ele><time>2026-04-19T13:57:17.148Z</time></trkpt><trkpt lat="43.1190618" lon="10.5449198"><ele>12.0</ele><time>2026-04-19T13:57:18.181Z</time></trkpt><trkpt lat="43.1191184" lon="10.5451072"><ele>12.333333333333332</ele><time>2026-04-19T13:57:19.146Z</time></trkpt><trkpt lat="43.1192045" lon="10.5452763"><ele>12.666666666666666</ele><time>2026-04-19T13:57:20.137Z</time></trkpt><trkpt lat="43.1193264" lon="10.5454182"><ele>13.0</ele><time>2026-04-19T13:57:21.14Z</time></trkpt><trkpt lat="43.1194696" lon="10.5455128"><ele>13.0</ele><time>2026-04-19T13:57:22.14Z</time></trkpt><trkpt lat="43.119633" lon="10.5455709"><ele>13.0</ele><time>2026-04-19T13:57:23.144Z</time></trkpt><trkpt lat="43.1198073" lon="10.5456057"><ele>13.0</ele><time>2026-04-19T13:57:24.148Z</time></trkpt><trkpt lat="43.1199853" lon="10.5456388"><ele>12.666666666666666</ele><time>2026-04-19T13:57:25.149Z</time></trkpt><trkpt lat="43.1201638" lon="10.5456785"><ele>12.333333333333332</ele><time>2026-04-19T13:57:26.153Z</time></trkpt><trkpt lat="43.1203456" lon="10.54572"><ele>12.0</ele><time>2026-04-19T13:57:27.144Z</time></trkpt><trkpt lat="43.1205289" lon="10.5457622"><ele>12.0</ele><time>2026-04-19T13:57:28.146Z</time></trkpt><trkpt lat="43.1207133" lon="10.5458104"><ele>12.0</ele><time>2026-04-19T13:57:29.147Z</time></trkpt><trkpt lat="43.1208979" lon="10.545868"><ele>12.0</ele><time>2026-04-19T13:57:30.148Z</time></trkpt><trkpt lat="43.1210802" lon="10.5459296"><ele>12.0</ele><time>2026-04-19T13:57:31.137Z</time></trkpt><trkpt lat="43.1212616" lon="10.5459953"><ele>12.0</ele><time>2026-04-19T13:57:32.178Z</time></trkpt><trkpt lat="43.1214444" lon="10.546061"><ele>12.0</ele><time>2026-04-19T13:57:33.141Z</time></trkpt><trkpt lat="43.1216297" lon="10.5461275"><ele>12.0</ele><time>2026-04-19T13:57:34.139Z</time></trkpt><trkpt lat="43.1218163" lon="10.5461934"><ele>12.0</ele><time>2026-04-19T13:57:35.16Z</time></trkpt><trkpt lat="43.1220021" lon="10.5462582"><ele>12.0</ele><time>2026-04-19T13:57:36.137Z</time></trkpt><trkpt lat="43.1221869" lon="10.5463245"><ele>12.333333333333332</ele><time>2026-04-19T13:57:37.149Z</time></trkpt><trkpt lat="43.1223707" lon="10.5463892"><ele>12.666666666666666</ele><time>2026-04-19T13:57:38.144Z</time></trkpt><trkpt lat="43.1225547" lon="10.5464554"><ele>13.0</ele><time>2026-04-19T13:57:39.144Z</time></trkpt><trkpt lat="43.1227394" lon="10.546519"><ele>13.0</ele><time>2026-04-19T13:57:40.136Z</time></trkpt><trkpt lat="43.1229257" lon="10.5465839"><ele>13.0</ele><time>2026-04-19T13:57:41.172Z</time></trkpt><trkpt lat="43.1231154" lon="10.5466526"><ele>13.0</ele><time>2026-04-19T13:57:42.14Z</time></trkpt><trkpt lat="43.1233066" lon="10.5467234"><ele>12.666666666666666</ele><time>2026-04-19T13:57:43.136Z</time></trkpt><trkpt lat="43.1235008" lon="10.5467914"><ele>12.333333333333332</ele><time>2026-04-19T13:57:44.153Z</time></trkpt><trkpt lat="43.1236955" lon="10.5468602"><ele>12.0</ele><time>2026-04-19T13:57:45.141Z</time></trkpt><trkpt lat="43.1238937" lon="10.5469305"><ele>12.333333333333332</ele><time>2026-04-19T13:57:46.177Z</time></trkpt><trkpt lat="43.1240948" lon="10.5469985"><ele>12.666666666666666</ele><time>2026-04-19T13:57:47.175Z</time></trkpt><trkpt lat="43.1242963" lon="10.5470661"><ele>13.0</ele><time>2026-04-19T13:57:48.137Z</time></trkpt><trkpt lat="43.1244992" lon="10.5471331"><ele>13.0</ele><time>2026-04-19T13:57:49.143Z</time></trkpt><trkpt lat="43.1247039" lon="10.5472022"><ele>13.0</ele><time>2026-04-19T13:57:50.146Z</time></trkpt><trkpt lat="43.1249098" lon="10.5472763"><ele>13.0</ele><time>2026-04-19T13:57:51.146Z</time></trkpt><trkpt lat="43.1251144" lon="10.5473483"><ele>13.0</ele><time>2026-04-19T13:57:52.147Z</time></trkpt><trkpt lat="43.1253155" lon="10.54742"><ele>13.0</ele><time>2026-04-19T13:57:53.173Z</time></trkpt><trkpt lat="43.1255131" lon="10.5474929"><ele>13.0</ele><time>2026-04-19T13:57:54.133Z</time></trkpt><trkpt lat="43.125707" lon="10.5475655"><ele>12.666666666666666</ele><time>2026-04-19T13:57:55.148Z</time></trkpt><trkpt lat="43.1258976" lon="10.547636"><ele>12.333333333333332</ele><time>2026-04-19T13:57:56.177Z</time></trkpt><trkpt lat="43.1260864" lon="10.5477071"><ele>12.0</ele><time>2026-04-19T13:57:57.139Z</time></trkpt><trkpt lat="43.1262731" lon="10.5477785"><ele>12.0</ele><time>2026-04-19T13:57:58.137Z</time></trkpt><trkpt lat="43.1264613" lon="10.5478504"><ele>12.0</ele><time>2026-04-19T13:57:59.172Z</time></trkpt><trkpt lat="43.1266502" lon="10.5479197"><ele>12.0</ele><time>2026-04-19T13:58:00.137Z</time></trkpt><trkpt lat="43.1268389" lon="10.5479894"><ele>12.666666666666668</ele><time>2026-04-19T13:58:01.18Z</time></trkpt><trkpt lat="43.1270274" lon="10.5480593"><ele>13.333333333333334</ele><time>2026-04-19T13:58:02.169Z</time></trkpt><trkpt lat="43.127218" lon="10.5481291"><ele>14.0</ele><time>2026-04-19T13:58:03.164Z</time></trkpt><trkpt lat="43.1274098" lon="10.5481952"><ele>14.0</ele><time>2026-04-19T13:58:04.154Z</time></trkpt><trkpt lat="43.1276002" lon="10.5482591"><ele>14.0</ele><time>2026-04-19T13:58:05.139Z</time></trkpt><trkpt lat="43.1277913" lon="10.5483248"><ele>14.0</ele><time>2026-04-19T13:58:06.145Z</time></trkpt><trkpt lat="43.127985" lon="10.5483925"><ele>14.0</ele><time>2026-04-19T13:58:07.142Z</time></trkpt><trkpt lat="43.1281788" lon="10.5484607"><ele>14.0</ele><time>2026-04-19T13:58:08.152Z</time></trkpt><trkpt lat="43.128374" lon="10.5485296"><ele>14.0</ele><time>2026-04-19T13:58:09.15Z</time></trkpt><trkpt lat="43.1285709" lon="10.5485985"><ele>14.0</ele><time>2026-04-19T13:58:10.172Z</time></trkpt><trkpt lat="43.1287675" lon="10.5486685"><ele>14.0</ele><time>2026-04-19T13:58:11.16Z</time></trkpt><trkpt lat="43.1289662" lon="10.5487384"><ele>14.0</ele><time>2026-04-19T13:58:12.144Z</time></trkpt><trkpt lat="43.1291642" lon="10.5488085"><ele>14.0</ele><time>2026-04-19T13:58:13.143Z</time></trkpt><trkpt lat="43.1293628" lon="10.5488811"><ele>14.0</ele><time>2026-04-19T13:58:14.153Z</time></trkpt><trkpt lat="43.1295684" lon="10.5489522"><ele>14.0</ele><time>2026-04-19T13:58:15.136Z</time></trkpt><trkpt lat="43.1297742" lon="10.5490215"><ele>14.0</ele><time>2026-04-19T13:58:16.137Z</time></trkpt><trkpt lat="43.1299746" lon="10.5490927"><ele>14.0</ele><time>2026-04-19T13:58:17.152Z</time></trkpt><trkpt lat="43.1301742" lon="10.5491629"><ele>14.0</ele><time>2026-04-19T13:58:18.15Z</time></trkpt><trkpt lat="43.1303746" lon="10.5492322"><ele>14.0</ele><time>2026-04-19T13:58:19.17Z</time></trkpt><trkpt lat="43.1305767" lon="10.5493027"><ele>14.0</ele><time>2026-04-19T13:58:20.179Z</time></trkpt><trkpt lat="43.1307796" lon="10.5493741"><ele>14.0</ele><time>2026-04-19T13:58:21.137Z</time></trkpt><trkpt lat="43.1309829" lon="10.5494444"><ele>14.333333333333334</ele><time>2026-04-19T13:58:22.174Z</time></trkpt><trkpt lat="43.1311863" lon="10.5495158"><ele>14.666666666666668</ele><time>2026-04-19T13:58:23.138Z</time></trkpt><trkpt lat="43.1313919" lon="10.5495882"><ele>15.0</ele><time>2026-04-19T13:58:24.137Z</time></trkpt><trkpt lat="43.1315975" lon="10.54966"><ele>15.0</ele><time>2026-04-19T13:58:25.182Z</time></trkpt><trkpt lat="43.1318035" lon="10.5497324"><ele>15.0</ele><time>2026-04-19T13:58:26.136Z</time></trkpt><trkpt lat="43.1320083" lon="10.5498065"><ele>15.0</ele><time>2026-04-19T13:58:27.161Z</time></trkpt><trkpt lat="43.1322126" lon="10.5498801"><ele>15.0</ele><time>2026-04-19T13:58:28.14Z</time></trkpt><trkpt lat="43.1324162" lon="10.5499524"><ele>15.0</ele><time>2026-04-19T13:58:29.143Z</time></trkpt><trkpt lat="43.1326196" lon="10.5500249"><ele>15.0</ele><time>2026-04-19T13:58:30.158Z</time></trkpt><trkpt lat="43.1328246" lon="10.5500975"><ele>15.0</ele><time>2026-04-19T13:58:31.141Z</time></trkpt><trkpt lat="43.1330297" lon="10.5501713"><ele>15.0</ele><time>2026-04-19T13:58:32.151Z</time></trkpt><trkpt lat="43.1332354" lon="10.5502456"><ele>15.0</ele><time>2026-04-19T13:58:33.145Z</time></trkpt><trkpt lat="43.1334416" lon="10.5503209"><ele>15.666666666666668</ele><time>2026-04-19T13:58:34.173Z</time></trkpt><trkpt lat="43.1336458" lon="10.5503933"><ele>16.333333333333336</ele><time>2026-04-19T13:58:35.138Z</time></trkpt><trkpt lat="43.1338464" lon="10.5504633"><ele>17.0</ele><time>2026-04-19T13:58:36.146Z</time></trkpt><trkpt lat="43.1340412" lon="10.5505313"><ele>17.333333333333336</ele><time>2026-04-19T13:58:37.146Z</time></trkpt><trkpt lat="43.1342315" lon="10.5505994"><ele>17.666666666666668</ele><time>2026-04-19T13:58:38.139Z</time></trkpt><trkpt lat="43.134418" lon="10.5506673"><ele>18.0</ele><time>2026-04-19T13:58:39.156Z</time></trkpt><trkpt lat="43.1346038" lon="10.550734"><ele>18.0</ele><time>2026-04-19T13:58:40.144Z</time></trkpt><trkpt lat="43.1347883" lon="10.5508022"><ele>18.0</ele><time>2026-04-19T13:58:41.152Z</time></trkpt><trkpt lat="43.1349738" lon="10.5508694"><ele>18.0</ele><time>2026-04-19T13:58:42.154Z</time></trkpt><trkpt lat="43.1351632" lon="10.5509385"><ele>16.333333333333332</ele><time>2026-04-19T13:58:43.149Z</time></trkpt><trkpt lat="43.135355" lon="10.551009"><ele>14.666666666666666</ele><time>2026-04-19T13:58:44.157Z</time></trkpt><trkpt lat="43.1355492" lon="10.5510808"><ele>13.0</ele><time>2026-04-19T13:58:45.155Z</time></trkpt><trkpt lat="43.1357461" lon="10.5511534"><ele>13.666666666666666</ele><time>2026-04-19T13:58:46.166Z</time></trkpt><trkpt lat="43.1359433" lon="10.5512263"><ele>14.333333333333332</ele><time>2026-04-19T13:58:47.176Z</time></trkpt><trkpt lat="43.13614" lon="10.5512969"><ele>15.0</ele><time>2026-04-19T13:58:48.143Z</time></trkpt><trkpt lat="43.136336" lon="10.5513656"><ele>15.0</ele><time>2026-04-19T13:58:49.17Z</time></trkpt><trkpt lat="43.1365342" lon="10.5514341"><ele>15.0</ele><time>2026-04-19T13:58:50.142Z</time></trkpt><trkpt lat="43.1367313" lon="10.5515023"><ele>15.0</ele><time>2026-04-19T13:58:51.141Z</time></trkpt><trkpt lat="43.1369275" lon="10.5515727"><ele>15.333333333333332</ele><time>2026-04-19T13:58:52.147Z</time></trkpt><trkpt lat="43.1371241" lon="10.5516437"><ele>15.666666666666666</ele><time>2026-04-19T13:58:53.152Z</time></trkpt><trkpt lat="43.1373205" lon="10.5517159"><ele>16.0</ele><time>2026-04-19T13:58:54.149Z</time></trkpt><trkpt lat="43.1375178" lon="10.5517886"><ele>15.333333333333332</ele><time>2026-04-19T13:58:55.17Z</time></trkpt><trkpt lat="43.1377169" lon="10.5518598"><ele>14.666666666666668</ele><time>2026-04-19T13:58:56.143Z</time></trkpt><trkpt lat="43.1379163" lon="10.5519293"><ele>14.0</ele><time>2026-04-19T13:58:57.147Z</time></trkpt><trkpt lat="43.1381123" lon="10.551999"><ele>15.0</ele><time>2026-04-19T13:58:58.14Z</time></trkpt><trkpt lat="43.1383057" lon="10.5520681"><ele>16.0</ele><time>2026-04-19T13:58:59.172Z</time></trkpt><trkpt lat="43.1384986" lon="10.5521383"><ele>17.0</ele><time>2026-04-19T13:59:00.132Z</time></trkpt><trkpt lat="43.1386933" lon="10.5522076"><ele>17.0</ele><time>2026-04-19T13:59:01.18Z</time></trkpt><trkpt lat="43.1388888" lon="10.5522778"><ele>17.0</ele><time>2026-04-19T13:59:02.178Z</time></trkpt><trkpt lat="43.1390838" lon="10.5523468"><ele>17.0</ele><time>2026-04-19T13:59:03.146Z</time></trkpt><trkpt lat="43.1392791" lon="10.5524144"><ele>17.0</ele><time>2026-04-19T13:59:04.144Z</time></trkpt><trkpt lat="43.1394761" lon="10.5524833"><ele>17.0</ele><time>2026-04-19T13:59:05.148Z</time></trkpt><trkpt lat="43.1396757" lon="10.5525513"><ele>17.0</ele><time>2026-04-19T13:59:06.146Z</time></trkpt><trkpt lat="43.1398757" lon="10.5526225"><ele>16.333333333333336</ele><time>2026-04-19T13:59:07.177Z</time></trkpt><trkpt lat="43.1400772" lon="10.5526972"><ele>15.666666666666668</ele><time>2026-04-19T13:59:08.174Z</time></trkpt><trkpt lat="43.1402789" lon="10.5527725"><ele>15.0</ele><time>2026-04-19T13:59:09.15Z</time></trkpt><trkpt lat="43.1404787" lon="10.5528445"><ele>16.0</ele><time>2026-04-19T13:59:10.142Z</time></trkpt><trkpt lat="43.1406761" lon="10.5529159"><ele>17.0</ele><time>2026-04-19T13:59:11.148Z</time></trkpt><trkpt lat="43.1408713" lon="10.552987"><ele>18.0</ele><time>2026-04-19T13:59:12.143Z</time></trkpt><trkpt lat="43.1410646" lon="10.5530571"><ele>18.0</ele><time>2026-04-19T13:59:13.143Z</time></trkpt><trkpt lat="43.1412591" lon="10.5531266"><ele>18.0</ele><time>2026-04-19T13:59:14.149Z</time></trkpt><trkpt lat="43.1414537" lon="10.5531958"><ele>18.0</ele><time>2026-04-19T13:59:15.151Z</time></trkpt><trkpt lat="43.1416483" lon="10.5532645"><ele>17.666666666666668</ele><time>2026-04-19T13:59:16.142Z</time></trkpt><trkpt lat="43.1418443" lon="10.5533335"><ele>17.333333333333336</ele><time>2026-04-19T13:59:17.14Z</time></trkpt><trkpt lat="43.1420416" lon="10.5534033"><ele>17.0</ele><time>2026-04-19T13:59:18.148Z</time></trkpt><trkpt lat="43.1422404" lon="10.5534751"><ele>16.666666666666668</ele><time>2026-04-19T13:59:19.154Z</time></trkpt><trkpt lat="43.1424406" lon="10.5535512"><ele>16.333333333333332</ele><time>2026-04-19T13:59:20.146Z</time></trkpt><trkpt lat="43.1426408" lon="10.5536305"><ele>16.0</ele><time>2026-04-19T13:59:21.168Z</time></trkpt><trkpt lat="43.1428397" lon="10.5537131"><ele>15.666666666666666</ele><time>2026-04-19T13:59:22.171Z</time></trkpt><trkpt lat="43.1430371" lon="10.5537953"><ele>15.333333333333332</ele><time>2026-04-19T13:59:23.141Z</time></trkpt><trkpt lat="43.1432336" lon="10.5538764"><ele>15.0</ele><time>2026-04-19T13:59:24.141Z</time></trkpt><trkpt lat="43.1434315" lon="10.5539584"><ele>15.0</ele><time>2026-04-19T13:59:25.144Z</time></trkpt><trkpt lat="43.1436281" lon="10.5540426"><ele>15.0</ele><time>2026-04-19T13:59:26.174Z</time></trkpt><trkpt lat="43.1438257" lon="10.5541279"><ele>15.0</ele><time>2026-04-19T13:59:27.134Z</time></trkpt><trkpt lat="43.1440219" lon="10.5542171"><ele>14.333333333333332</ele><time>2026-04-19T13:59:28.17Z</time></trkpt><trkpt lat="43.1442162" lon="10.5543089"><ele>13.666666666666666</ele><time>2026-04-19T13:59:29.156Z</time></trkpt><trkpt lat="43.1444109" lon="10.5544061"><ele>13.0</ele><time>2026-04-19T13:59:30.176Z</time></trkpt><trkpt lat="43.1446045" lon="10.5544994"><ele>13.333333333333332</ele><time>2026-04-19T13:59:31.139Z</time></trkpt><trkpt lat="43.1447969" lon="10.5545978"><ele>13.666666666666668</ele><time>2026-04-19T13:59:32.192Z</time></trkpt><trkpt lat="43.1449909" lon="10.5546987"><ele>14.0</ele><time>2026-04-19T13:59:33.142Z</time></trkpt><trkpt lat="43.145184" lon="10.554803"><ele>14.0</ele><time>2026-04-19T13:59:34.138Z</time></trkpt><trkpt lat="43.1453767" lon="10.5549071"><ele>14.0</ele><time>2026-04-19T13:59:35.143Z</time></trkpt><trkpt lat="43.1455713" lon="10.5550116"><ele>14.0</ele><time>2026-04-19T13:59:36.183Z</time></trkpt><trkpt lat="43.1457642" lon="10.5551147"><ele>14.0</ele><time>2026-04-19T13:59:37.141Z</time></trkpt><trkpt lat="43.1461476" lon="10.5553246"><ele>14.0</ele><time>2026-04-19T13:59:39.164Z</time></trkpt><trkpt lat="43.1463403" lon="10.5554303"><ele>13.666666666666668</ele><time>2026-04-19T13:59:40.157Z</time></trkpt><trkpt lat="43.1465366" lon="10.555535"><ele>13.333333333333332</ele><time>2026-04-19T13:59:41.138Z</time></trkpt><trkpt lat="43.146736" lon="10.5556415"><ele>13.0</ele><time>2026-04-19T13:59:42.135Z</time></trkpt><trkpt lat="43.1469351" lon="10.5557504"><ele>15.0</ele><time>2026-04-19T13:59:43.15Z</time></trkpt><trkpt lat="43.1475265" lon="10.5560762"><ele>15.0</ele><time>2026-04-19T13:59:46.138Z</time></trkpt><trkpt lat="43.1477237" lon="10.5561893"><ele>15.0</ele><time>2026-04-19T13:59:47.168Z</time></trkpt><trkpt lat="43.1479224" lon="10.5562995"><ele>15.0</ele><time>2026-04-19T13:59:48.148Z</time></trkpt><trkpt lat="43.1483187" lon="10.5565178"><ele>14.666666666666668</ele><time>2026-04-19T13:59:50.149Z</time></trkpt><trkpt lat="43.1485175" lon="10.5566242"><ele>14.333333333333334</ele><time>2026-04-19T13:59:51.172Z</time></trkpt><trkpt lat="43.1487171" lon="10.5567282"><ele>14.0</ele><time>2026-04-19T13:59:52.141Z</time></trkpt><trkpt lat="43.1491103" lon="10.5569413"><ele>14.0</ele><time>2026-04-19T13:59:54.145Z</time></trkpt><trkpt lat="43.149308" lon="10.5570508"><ele>14.0</ele><time>2026-04-19T13:59:55.135Z</time></trkpt><trkpt lat="43.1502659" lon="10.5575578"><ele>14.0</ele><time>2026-04-19T14:00:00.139Z</time></trkpt><trkpt lat="43.1504533" lon="10.5576566"><ele>14.0</ele><time>2026-04-19T14:00:01.144Z</time></trkpt><trkpt lat="43.1506414" lon="10.5577541"><ele>14.0</ele><time>2026-04-19T14:00:02.149Z</time></trkpt><trkpt lat="43.1508316" lon="10.5578534"><ele>15.666666666666668</ele><time>2026-04-19T14:00:03.153Z</time></trkpt><trkpt lat="43.1510215" lon="10.5579547"><ele>17.333333333333332</ele><time>2026-04-19T14:00:04.145Z</time></trkpt><trkpt lat="43.1512126" lon="10.558059"><ele>19.0</ele><time>2026-04-19T14:00:05.136Z</time></trkpt><trkpt lat="43.1514028" lon="10.5581599"><ele>18.666666666666664</ele><time>2026-04-19T14:00:06.183Z</time></trkpt><trkpt lat="43.1515898" lon="10.5582583"><ele>18.333333333333332</ele><time>2026-04-19T14:00:07.142Z</time></trkpt><trkpt lat="43.1517751" lon="10.5583556"><ele>18.0</ele><time>2026-04-19T14:00:08.139Z</time></trkpt><trkpt lat="43.1519613" lon="10.5584554"><ele>18.0</ele><time>2026-04-19T14:00:09.155Z</time></trkpt><trkpt lat="43.1521489" lon="10.5585559"><ele>18.0</ele><time>2026-04-19T14:00:10.149Z</time></trkpt><trkpt lat="43.1523414" lon="10.5586585"><ele>18.0</ele><time>2026-04-19T14:00:11.146Z</time></trkpt><trkpt lat="43.1525349" lon="10.5587595"><ele>17.666666666666668</ele><time>2026-04-19T14:00:12.143Z</time></trkpt><trkpt lat="43.1527256" lon="10.5588642"><ele>17.333333333333336</ele><time>2026-04-19T14:00:13.151Z</time></trkpt><trkpt lat="43.1529164" lon="10.5589684"><ele>17.0</ele><time>2026-04-19T14:00:14.144Z</time></trkpt><trkpt lat="43.1531053" lon="10.559073"><ele>16.333333333333336</ele><time>2026-04-19T14:00:15.144Z</time></trkpt><trkpt lat="43.1532924" lon="10.5591784"><ele>15.666666666666668</ele><time>2026-04-19T14:00:16.152Z</time></trkpt><trkpt lat="43.1534811" lon="10.5592831"><ele>15.0</ele><time>2026-04-19T14:00:17.138Z</time></trkpt><trkpt lat="43.1536703" lon="10.5593871"><ele>15.0</ele><time>2026-04-19T14:00:18.14Z</time></trkpt><trkpt lat="43.1538595" lon="10.5594903"><ele>15.0</ele><time>2026-04-19T14:00:19.147Z</time></trkpt><trkpt lat="43.1540503" lon="10.5595908"><ele>15.0</ele><time>2026-04-19T14:00:20.148Z</time></trkpt><trkpt lat="43.1542401" lon="10.5596916"><ele>15.0</ele><time>2026-04-19T14:00:21.152Z</time></trkpt><trkpt lat="43.1544285" lon="10.559793"><ele>15.0</ele><time>2026-04-19T14:00:22.144Z</time></trkpt><trkpt lat="43.1546163" lon="10.5598943"><ele>15.0</ele><time>2026-04-19T14:00:23.145Z</time></trkpt><trkpt lat="43.1548028" lon="10.5599933"><ele>16.0</ele><time>2026-04-19T14:00:24.173Z</time></trkpt><trkpt lat="43.1549895" lon="10.5600952"><ele>17.0</ele><time>2026-04-19T14:00:25.141Z</time></trkpt><trkpt lat="43.1551766" lon="10.5601955"><ele>18.0</ele><time>2026-04-19T14:00:26.142Z</time></trkpt><trkpt lat="43.1553636" lon="10.5602969"><ele>18.0</ele><time>2026-04-19T14:00:27.158Z</time></trkpt><trkpt lat="43.1555513" lon="10.5603994"><ele>18.0</ele><time>2026-04-19T14:00:28.143Z</time></trkpt><trkpt lat="43.1557388" lon="10.5605035"><ele>18.0</ele><time>2026-04-19T14:00:29.156Z</time></trkpt><trkpt lat="43.1559271" lon="10.5606072"><ele>18.0</ele><time>2026-04-19T14:00:30.133Z</time></trkpt><trkpt lat="43.1561155" lon="10.5607098"><ele>18.0</ele><time>2026-04-19T14:00:31.149Z</time></trkpt><trkpt lat="43.1563039" lon="10.5608093"><ele>18.0</ele><time>2026-04-19T14:00:32.144Z</time></trkpt><trkpt lat="43.1564919" lon="10.5609109"><ele>18.333333333333332</ele><time>2026-04-19T14:00:33.144Z</time></trkpt><trkpt lat="43.1566782" lon="10.5610152"><ele>18.666666666666664</ele><time>2026-04-19T14:00:34.139Z</time></trkpt><trkpt lat="43.1568652" lon="10.5611187"><ele>19.0</ele><time>2026-04-19T14:00:35.17Z</time></trkpt><trkpt lat="43.1570534" lon="10.5612207"><ele>19.0</ele><time>2026-04-19T14:00:36.139Z</time></trkpt><trkpt lat="43.1572423" lon="10.5613245"><ele>19.0</ele><time>2026-04-19T14:00:37.184Z</time></trkpt><trkpt lat="43.1574311" lon="10.5614256"><ele>19.0</ele><time>2026-04-19T14:00:38.176Z</time></trkpt><trkpt lat="43.1576193" lon="10.5615259"><ele>18.333333333333332</ele><time>2026-04-19T14:00:39.151Z</time></trkpt><trkpt lat="43.1578093" lon="10.5616267"><ele>17.666666666666668</ele><time>2026-04-19T14:00:40.169Z</time></trkpt><trkpt lat="43.1580009" lon="10.5617278"><ele>17.0</ele><time>2026-04-19T14:00:41.158Z</time></trkpt><trkpt lat="43.158192" lon="10.5618312"><ele>17.0</ele><time>2026-04-19T14:00:42.165Z</time></trkpt><trkpt lat="43.1583828" lon="10.5619354"><ele>17.0</ele><time>2026-04-19T14:00:43.14Z</time></trkpt><trkpt lat="43.1585733" lon="10.5620425"><ele>17.0</ele><time>2026-04-19T14:00:44.174Z</time></trkpt><trkpt lat="43.1587623" lon="10.56215"><ele>17.0</ele><time>2026-04-19T14:00:45.142Z</time></trkpt><trkpt lat="43.1589505" lon="10.5622524"><ele>17.0</ele><time>2026-04-19T14:00:46.141Z</time></trkpt><trkpt lat="43.1591404" lon="10.5623512"><ele>17.0</ele><time>2026-04-19T14:00:47.172Z</time></trkpt><trkpt lat="43.1593313" lon="10.5624475"><ele>17.0</ele><time>2026-04-19T14:00:48.152Z</time></trkpt><trkpt lat="43.1595254" lon="10.5625324"><ele>17.0</ele><time>2026-04-19T14:00:49.149Z</time></trkpt><trkpt lat="43.1597216" lon="10.5626065"><ele>17.0</ele><time>2026-04-19T14:00:50.169Z</time></trkpt><trkpt lat="43.1599194" lon="10.5626742"><ele>16.666666666666668</ele><time>2026-04-19T14:00:51.144Z</time></trkpt><trkpt lat="43.1601174" lon="10.5627316"><ele>16.333333333333332</ele><time>2026-04-19T14:00:52.154Z</time></trkpt><trkpt lat="43.1603166" lon="10.5627815"><ele>16.0</ele><time>2026-04-19T14:00:53.164Z</time></trkpt><trkpt lat="43.160517" lon="10.5628258"><ele>16.333333333333332</ele><time>2026-04-19T14:00:54.174Z</time></trkpt><trkpt lat="43.1607165" lon="10.562868"><ele>16.666666666666668</ele><time>2026-04-19T14:00:55.172Z</time></trkpt><trkpt lat="43.1609155" lon="10.562913"><ele>17.0</ele><time>2026-04-19T14:00:56.146Z</time></trkpt><trkpt lat="43.1611104" lon="10.5629554"><ele>17.0</ele><time>2026-04-19T14:00:57.151Z</time></trkpt><trkpt lat="43.1612978" lon="10.5629988"><ele>17.0</ele><time>2026-04-19T14:00:58.143Z</time></trkpt><trkpt lat="43.1614792" lon="10.5630378"><ele>17.0</ele><time>2026-04-19T14:00:59.155Z</time></trkpt><trkpt lat="43.1616582" lon="10.563074"><ele>18.0</ele><time>2026-04-19T14:01:00.18Z</time></trkpt><trkpt lat="43.1618346" lon="10.5631098"><ele>19.0</ele><time>2026-04-19T14:01:01.141Z</time></trkpt><trkpt lat="43.1620064" lon="10.5631469"><ele>20.0</ele><time>2026-04-19T14:01:02.141Z</time></trkpt><trkpt lat="43.162177" lon="10.5631867"><ele>20.0</ele><time>2026-04-19T14:01:03.154Z</time></trkpt><trkpt lat="43.1623437" lon="10.5632254"><ele>20.0</ele><time>2026-04-19T14:01:04.141Z</time></trkpt><trkpt lat="43.1625102" lon="10.563265"><ele>20.0</ele><time>2026-04-19T14:01:05.154Z</time></trkpt><trkpt lat="43.1626771" lon="10.5633048"><ele>20.666666666666668</ele><time>2026-04-19T14:01:06.155Z</time></trkpt><trkpt lat="43.1628442" lon="10.5633442"><ele>21.333333333333332</ele><time>2026-04-19T14:01:07.149Z</time></trkpt><trkpt lat="43.1630123" lon="10.5633802"><ele>22.0</ele><time>2026-04-19T14:01:08.152Z</time></trkpt><trkpt lat="43.1631798" lon="10.5634169"><ele>23.0</ele><time>2026-04-19T14:01:09.147Z</time></trkpt><trkpt lat="43.1633464" lon="10.5634546"><ele>24.0</ele><time>2026-04-19T14:01:10.153Z</time></trkpt><trkpt lat="43.1635087" lon="10.5634983"><ele>25.0</ele><time>2026-04-19T14:01:11.142Z</time></trkpt><trkpt lat="43.1636702" lon="10.5635459"><ele>25.0</ele><time>2026-04-19T14:01:12.146Z</time></trkpt><trkpt lat="43.163837" lon="10.5635845"><ele>25.0</ele><time>2026-04-19T14:01:13.155Z</time></trkpt><trkpt lat="43.1640022" lon="10.5636201"><ele>25.0</ele><time>2026-04-19T14:01:14.171Z</time></trkpt><trkpt lat="43.1641664" lon="10.5636536"><ele>25.333333333333336</ele><time>2026-04-19T14:01:15.144Z</time></trkpt><trkpt lat="43.1643302" lon="10.5636877"><ele>25.666666666666664</ele><time>2026-04-19T14:01:16.159Z</time></trkpt><trkpt lat="43.1644904" lon="10.5637223"><ele>26.0</ele><time>2026-04-19T14:01:17.148Z</time></trkpt><trkpt lat="43.1646473" lon="10.5637564"><ele>25.0</ele><time>2026-04-19T14:01:18.143Z</time></trkpt><trkpt lat="43.1647987" lon="10.5637892"><ele>24.0</ele><time>2026-04-19T14:01:19.136Z</time></trkpt><trkpt lat="43.1649477" lon="10.5638204"><ele>23.0</ele><time>2026-04-19T14:01:20.178Z</time></trkpt><trkpt lat="43.1650917" lon="10.5638496"><ele>23.0</ele><time>2026-04-19T14:01:21.137Z</time></trkpt><trkpt lat="43.1652346" lon="10.563883"><ele>23.0</ele><time>2026-04-19T14:01:22.177Z</time></trkpt><trkpt lat="43.1653769" lon="10.5639175"><ele>23.0</ele><time>2026-04-19T14:01:23.134Z</time></trkpt><trkpt lat="43.1655202" lon="10.563954"><ele>23.0</ele><time>2026-04-19T14:01:24.151Z</time></trkpt><trkpt lat="43.165665" lon="10.5639876"><ele>23.0</ele><time>2026-04-19T14:01:25.169Z</time></trkpt><trkpt lat="43.1658105" lon="10.5640174"><ele>23.0</ele><time>2026-04-19T14:01:26.177Z</time></trkpt><trkpt lat="43.1659581" lon="10.5640482"><ele>23.0</ele><time>2026-04-19T14:01:27.172Z</time></trkpt><trkpt lat="43.1661048" lon="10.5640788"><ele>23.0</ele><time>2026-04-19T14:01:28.138Z</time></trkpt><trkpt lat="43.1662474" lon="10.5641092"><ele>23.0</ele><time>2026-04-19T14:01:29.179Z</time></trkpt><trkpt lat="43.1663842" lon="10.5641763"><ele>23.0</ele><time>2026-04-19T14:01:30.172Z</time></trkpt><trkpt lat="43.1665221" lon="10.5642084"><ele>23.0</ele><time>2026-04-19T14:01:31.139Z</time></trkpt><trkpt lat="43.1666625" lon="10.5642391"><ele>23.0</ele><time>2026-04-19T14:01:32.17Z</time></trkpt><trkpt lat="43.1667964" lon="10.5642677"><ele>22.75</ele><time>2026-04-19T14:01:33.143Z</time></trkpt><trkpt lat="43.1669319" lon="10.564296"><ele>22.5</ele><time>2026-04-19T14:01:34.176Z</time></trkpt><trkpt lat="43.1670639" lon="10.5643204"><ele>22.25</ele><time>2026-04-19T14:01:35.138Z</time></trkpt><trkpt lat="43.1671936" lon="10.5643401"><ele>22.0</ele><time>2026-04-19T14:01:36.164Z</time></trkpt><trkpt lat="43.1673237" lon="10.5643657"><ele>21.75</ele><time>2026-04-19T14:01:37.161Z</time></trkpt><trkpt lat="43.1674497" lon="10.56439"><ele>21.5</ele><time>2026-04-19T14:01:38.139Z</time></trkpt><trkpt lat="43.1675757" lon="10.5644122"><ele>21.25</ele><time>2026-04-19T14:01:39.142Z</time></trkpt><trkpt lat="43.1676984" lon="10.5644362"><ele>21.0</ele><time>2026-04-19T14:01:40.159Z</time></trkpt><trkpt lat="43.1678123" lon="10.5644617"><ele>21.0</ele><time>2026-04-19T14:01:41.167Z</time></trkpt><trkpt lat="43.1679197" lon="10.5644841"><ele>21.0</ele><time>2026-04-19T14:01:42.144Z</time></trkpt><trkpt lat="43.1680235" lon="10.564506"><ele>21.0</ele><time>2026-04-19T14:01:43.144Z</time></trkpt><trkpt lat="43.1681256" lon="10.56453"><ele>21.0</ele><time>2026-04-19T14:01:44.176Z</time></trkpt><trkpt lat="43.1682234" lon="10.5645525"><ele>21.0</ele><time>2026-04-19T14:01:45.159Z</time></trkpt><trkpt lat="43.1683233" lon="10.5645769"><ele>21.0</ele><time>2026-04-19T14:01:46.139Z</time></trkpt><trkpt lat="43.1684242" lon="10.564599"><ele>21.0</ele><time>2026-04-19T14:01:47.151Z</time></trkpt><trkpt lat="43.1685307" lon="10.5646219"><ele>21.0</ele><time>2026-04-19T14:01:48.145Z</time></trkpt><trkpt lat="43.1686324" lon="10.5646461"><ele>21.0</ele><time>2026-04-19T14:01:49.164Z</time></trkpt><trkpt lat="43.1687325" lon="10.5646699"><ele>21.0</ele><time>2026-04-19T14:01:50.153Z</time></trkpt><trkpt lat="43.1688434" lon="10.5646937"><ele>21.0</ele><time>2026-04-19T14:01:51.142Z</time></trkpt><trkpt lat="43.1689706" lon="10.564721"><ele>21.0</ele><time>2026-04-19T14:01:52.135Z</time></trkpt><trkpt lat="43.1690985" lon="10.5647476"><ele>21.0</ele><time>2026-04-19T14:01:53.141Z</time></trkpt><trkpt lat="43.169225" lon="10.5647736"><ele>21.0</ele><time>2026-04-19T14:01:54.146Z</time></trkpt><trkpt lat="43.1693479" lon="10.5648008"><ele>21.25</ele><time>2026-04-19T14:01:55.176Z</time></trkpt><trkpt lat="43.1694658" lon="10.5648273"><ele>21.5</ele><time>2026-04-19T14:01:56.144Z</time></trkpt><trkpt lat="43.1695884" lon="10.564853"><ele>21.75</ele><time>2026-04-19T14:01:57.135Z</time></trkpt><trkpt lat="43.1697111" lon="10.5648829"><ele>22.0</ele><time>2026-04-19T14:01:58.136Z</time></trkpt><trkpt lat="43.169835" lon="10.5649144"><ele>22.5</ele><time>2026-04-19T14:01:59.141Z</time></trkpt><trkpt lat="43.1699632" lon="10.5649468"><ele>23.0</ele><time>2026-04-19T14:02:00.136Z</time></trkpt><trkpt lat="43.1700909" lon="10.5649783"><ele>23.5</ele><time>2026-04-19T14:02:01.144Z</time></trkpt><trkpt lat="43.1702208" lon="10.5650094"><ele>24.0</ele><time>2026-04-19T14:02:02.14Z</time></trkpt><trkpt lat="43.1703511" lon="10.5650432"><ele>24.0</ele><time>2026-04-19T14:02:03.152Z</time></trkpt><trkpt lat="43.1704836" lon="10.5650826"><ele>24.0</ele><time>2026-04-19T14:02:04.196Z</time></trkpt><trkpt lat="43.1706129" lon="10.565122"><ele>24.0</ele><time>2026-04-19T14:02:05.134Z</time></trkpt><trkpt lat="43.1707428" lon="10.5651612"><ele>24.0</ele><time>2026-04-19T14:02:06.137Z</time></trkpt><trkpt lat="43.1708717" lon="10.5652004"><ele>23.25</ele><time>2026-04-19T14:02:07.143Z</time></trkpt><trkpt lat="43.1710021" lon="10.565244"><ele>22.5</ele><time>2026-04-19T14:02:08.144Z</time></trkpt><trkpt lat="43.1711322" lon="10.5652872"><ele>21.75</ele><time>2026-04-19T14:02:09.148Z</time></trkpt><trkpt lat="43.171266" lon="10.5653338"><ele>21.0</ele><time>2026-04-19T14:02:10.151Z</time></trkpt><trkpt lat="43.1714041" lon="10.5653818"><ele>20.5</ele><time>2026-04-19T14:02:11.152Z</time></trkpt><trkpt lat="43.1715448" lon="10.5654278"><ele>20.0</ele><time>2026-04-19T14:02:12.169Z</time></trkpt><trkpt lat="43.171685" lon="10.565475"><ele>19.5</ele><time>2026-04-19T14:02:13.153Z</time></trkpt><trkpt lat="43.1718266" lon="10.5655229"><ele>19.0</ele><time>2026-04-19T14:02:14.147Z</time></trkpt><trkpt lat="43.1719688" lon="10.5655718"><ele>19.0</ele><time>2026-04-19T14:02:15.176Z</time></trkpt><trkpt lat="43.1721071" lon="10.5656199"><ele>19.0</ele><time>2026-04-19T14:02:16.152Z</time></trkpt><trkpt lat="43.1722453" lon="10.565668"><ele>19.0</ele><time>2026-04-19T14:02:17.14Z</time></trkpt><trkpt lat="43.1723832" lon="10.5657173"><ele>19.0</ele><time>2026-04-19T14:02:18.149Z</time></trkpt><trkpt lat="43.1725202" lon="10.5657654"><ele>19.25</ele><time>2026-04-19T14:02:19.144Z</time></trkpt><trkpt lat="43.1726577" lon="10.5658119"><ele>19.5</ele><time>2026-04-19T14:02:20.15Z</time></trkpt><trkpt lat="43.1727921" lon="10.5658582"><ele>19.75</ele><time>2026-04-19T14:02:21.141Z</time></trkpt><trkpt lat="43.1729235" lon="10.565902"><ele>20.0</ele><time>2026-04-19T14:02:22.178Z</time></trkpt><trkpt lat="43.1730442" lon="10.5659417"><ele>20.0</ele><time>2026-04-19T14:02:23.192Z</time></trkpt><trkpt lat="43.1731494" lon="10.5659746"><ele>20.0</ele><time>2026-04-19T14:02:24.138Z</time></trkpt><trkpt lat="43.173235" lon="10.5660027"><ele>20.0</ele><time>2026-04-19T14:02:25.147Z</time></trkpt><trkpt lat="43.1733038" lon="10.5660258"><ele>20.0</ele><time>2026-04-19T14:02:26.144Z</time></trkpt><trkpt lat="43.1734028" lon="10.5660606"><ele>20.0</ele><time>2026-04-19T14:02:27.148Z</time></trkpt><trkpt lat="43.1734893" lon="10.5660939"><ele>20.0</ele><time>2026-04-19T14:02:28.177Z</time></trkpt><trkpt lat="43.1735854" lon="10.5661318"><ele>20.0</ele><time>2026-04-19T14:02:29.175Z</time></trkpt><trkpt lat="43.1736925" lon="10.5661755"><ele>20.0</ele><time>2026-04-19T14:02:30.152Z</time></trkpt><trkpt lat="43.1738126" lon="10.5662255"><ele>20.0</ele><time>2026-04-19T14:02:31.15Z</time></trkpt><trkpt lat="43.1739426" lon="10.5662794"><ele>19.5</ele><time>2026-04-19T14:02:32.142Z</time></trkpt><trkpt lat="43.1740756" lon="10.5663346"><ele>19.0</ele><time>2026-04-19T14:02:33.173Z</time></trkpt><trkpt lat="43.1742039" lon="10.5663872"><ele>18.5</ele><time>2026-04-19T14:02:34.15Z</time></trkpt><trkpt lat="43.174335" lon="10.5664394"><ele>18.0</ele><time>2026-04-19T14:02:35.153Z</time></trkpt><trkpt lat="43.1744604" lon="10.566488"><ele>18.0</ele><time>2026-04-19T14:02:36.144Z</time></trkpt><trkpt lat="43.174577" lon="10.5665331"><ele>18.0</ele><time>2026-04-19T14:02:37.138Z</time></trkpt><trkpt lat="43.1746951" lon="10.5665793"><ele>18.0</ele><time>2026-04-19T14:02:38.18Z</time></trkpt><trkpt lat="43.1747949" lon="10.5666185"><ele>18.0</ele><time>2026-04-19T14:02:39.139Z</time></trkpt><trkpt lat="43.1748992" lon="10.5666588"><ele>18.2</ele><time>2026-04-19T14:02:40.172Z</time></trkpt><trkpt lat="43.1749924" lon="10.5666954"><ele>18.4</ele><time>2026-04-19T14:02:41.134Z</time></trkpt><trkpt lat="43.1750811" lon="10.5667345"><ele>18.599999999999998</ele><time>2026-04-19T14:02:42.15Z</time></trkpt><trkpt lat="43.1751705" lon="10.5667785"><ele>18.8</ele><time>2026-04-19T14:02:43.145Z</time></trkpt><trkpt lat="43.1752501" lon="10.5668111"><ele>19.0</ele><time>2026-04-19T14:02:44.175Z</time></trkpt><trkpt lat="43.1753568" lon="10.5668447"><ele>19.0</ele><time>2026-04-19T14:02:45.174Z</time></trkpt><trkpt lat="43.1754941" lon="10.5668929"><ele>19.0</ele><time>2026-04-19T14:02:46.144Z</time></trkpt><trkpt lat="43.1756418" lon="10.5669476"><ele>19.0</ele><time>2026-04-19T14:02:47.191Z</time></trkpt><trkpt lat="43.175781" lon="10.5670026"><ele>19.0</ele><time>2026-04-19T14:02:48.138Z</time></trkpt><trkpt lat="43.1759178" lon="10.5670565"><ele>19.0</ele><time>2026-04-19T14:02:49.182Z</time></trkpt><trkpt lat="43.1760549" lon="10.5671056"><ele>19.0</ele><time>2026-04-19T14:02:50.142Z</time></trkpt><trkpt lat="43.176199" lon="10.5671565"><ele>19.0</ele><time>2026-04-19T14:02:51.141Z</time></trkpt><trkpt lat="43.1763414" lon="10.5672056"><ele>19.0</ele><time>2026-04-19T14:02:52.146Z</time></trkpt><trkpt lat="43.1764862" lon="10.5672568"><ele>19.333333333333332</ele><time>2026-04-19T14:02:53.142Z</time></trkpt><trkpt lat="43.1766368" lon="10.5673108"><ele>19.666666666666668</ele><time>2026-04-19T14:02:54.148Z</time></trkpt><trkpt lat="43.1767901" lon="10.5673624"><ele>20.0</ele><time>2026-04-19T14:02:55.142Z</time></trkpt><trkpt lat="43.1769414" lon="10.5674091"><ele>20.0</ele><time>2026-04-19T14:02:56.139Z</time></trkpt><trkpt lat="43.1770943" lon="10.5674535"><ele>20.0</ele><time>2026-04-19T14:02:57.142Z</time></trkpt><trkpt lat="43.1772407" lon="10.5674833"><ele>20.0</ele><time>2026-04-19T14:02:58.16Z</time></trkpt><trkpt lat="43.177388" lon="10.5675053"><ele>19.5</ele><time>2026-04-19T14:02:59.136Z</time></trkpt><trkpt lat="43.1775291" lon="10.567515"><ele>19.0</ele><time>2026-04-19T14:03:00.181Z</time></trkpt><trkpt lat="43.1776717" lon="10.5675091"><ele>18.5</ele><time>2026-04-19T14:03:01.132Z</time></trkpt><trkpt lat="43.1778175" lon="10.5674906"><ele>18.0</ele><time>2026-04-19T14:03:02.155Z</time></trkpt><trkpt lat="43.1779791" lon="10.567468"><ele>18.0</ele><time>2026-04-19T14:03:03.146Z</time></trkpt><trkpt lat="43.1781306" lon="10.5674459"><ele>18.0</ele><time>2026-04-19T14:03:04.146Z</time></trkpt><trkpt lat="43.1782782" lon="10.5674242"><ele>18.0</ele><time>2026-04-19T14:03:05.146Z</time></trkpt><trkpt lat="43.1784197" lon="10.5674045"><ele>18.0</ele><time>2026-04-19T14:03:06.172Z</time></trkpt><trkpt lat="43.1785492" lon="10.5673859"><ele>17.5</ele><time>2026-04-19T14:03:07.158Z</time></trkpt><trkpt lat="43.1786723" lon="10.5673671"><ele>17.0</ele><time>2026-04-19T14:03:08.148Z</time></trkpt><trkpt lat="43.1787841" lon="10.5673478"><ele>16.5</ele><time>2026-04-19T14:03:09.142Z</time></trkpt><trkpt lat="43.1788872" lon="10.5673335"><ele>16.0</ele><time>2026-04-19T14:03:10.147Z</time></trkpt><trkpt lat="43.1790061" lon="10.5673164"><ele>16.5</ele><time>2026-04-19T14:03:11.171Z</time></trkpt><trkpt lat="43.1791233" lon="10.5672987"><ele>17.0</ele><time>2026-04-19T14:03:12.152Z</time></trkpt><trkpt lat="43.1792476" lon="10.5672773"><ele>17.5</ele><time>2026-04-19T14:03:13.157Z</time></trkpt><trkpt lat="43.1793858" lon="10.5672563"><ele>18.0</ele><time>2026-04-19T14:03:14.15Z</time></trkpt><trkpt lat="43.1795353" lon="10.5672367"><ele>18.0</ele><time>2026-04-19T14:03:15.14Z</time></trkpt><trkpt lat="43.179694" lon="10.5672168"><ele>18.0</ele><time>2026-04-19T14:03:16.154Z</time></trkpt><trkpt lat="43.1798625" lon="10.5671944"><ele>18.0</ele><time>2026-04-19T14:03:17.169Z</time></trkpt><trkpt lat="43.1800277" lon="10.5671716"><ele>16.333333333333332</ele><time>2026-04-19T14:03:18.179Z</time></trkpt><trkpt lat="43.1801871" lon="10.5671487"><ele>14.666666666666666</ele><time>2026-04-19T14:03:19.158Z</time></trkpt><trkpt lat="43.180357" lon="10.5671239"><ele>13.0</ele><time>2026-04-19T14:03:20.161Z</time></trkpt><trkpt lat="43.1805355" lon="10.5670986"><ele>12.666666666666666</ele><time>2026-04-19T14:03:21.175Z</time></trkpt><trkpt lat="43.1807209" lon="10.5670723"><ele>12.333333333333332</ele><time>2026-04-19T14:03:22.147Z</time></trkpt><trkpt lat="43.1809054" lon="10.5670464"><ele>12.0</ele><time>2026-04-19T14:03:23.134Z</time></trkpt><trkpt lat="43.1810933" lon="10.5670198"><ele>12.0</ele><time>2026-04-19T14:03:24.17Z</time></trkpt><trkpt lat="43.1812708" lon="10.5669955"><ele>12.0</ele><time>2026-04-19T14:03:25.138Z</time></trkpt><trkpt lat="43.1814587" lon="10.5669677"><ele>12.0</ele><time>2026-04-19T14:03:26.143Z</time></trkpt><trkpt lat="43.1816402" lon="10.5669426"><ele>12.333333333333332</ele><time>2026-04-19T14:03:27.159Z</time></trkpt><trkpt lat="43.1818214" lon="10.5669186"><ele>12.666666666666666</ele><time>2026-04-19T14:03:28.141Z</time></trkpt><trkpt lat="43.1820023" lon="10.5668909"><ele>13.0</ele><time>2026-04-19T14:03:29.179Z</time></trkpt><trkpt lat="43.1821753" lon="10.5668652"><ele>12.666666666666666</ele><time>2026-04-19T14:03:30.138Z</time></trkpt><trkpt lat="43.1823505" lon="10.566838"><ele>12.333333333333332</ele><time>2026-04-19T14:03:31.155Z</time></trkpt><trkpt lat="43.1825232" lon="10.5668118"><ele>12.0</ele><time>2026-04-19T14:03:32.134Z</time></trkpt><trkpt lat="43.1828596" lon="10.5667593"><ele>12.0</ele><time>2026-04-19T14:03:34.133Z</time></trkpt><trkpt lat="43.183025" lon="10.5667342"><ele>12.0</ele><time>2026-04-19T14:03:35.145Z</time></trkpt><trkpt lat="43.1831886" lon="10.566713"><ele>12.0</ele><time>2026-04-19T14:03:36.144Z</time></trkpt><trkpt lat="43.1833543" lon="10.5666912"><ele>10.5</ele><time>2026-04-19T14:03:37.17Z</time></trkpt><trkpt lat="43.1835115" lon="10.5666702"><ele>9.0</ele><time>2026-04-19T14:03:38.172Z</time></trkpt><trkpt lat="43.1838284" lon="10.5666291"><ele>9.0</ele><time>2026-04-19T14:03:40.171Z</time></trkpt><trkpt lat="43.1839842" lon="10.5666068"><ele>9.0</ele><time>2026-04-19T14:03:41.137Z</time></trkpt><trkpt lat="43.1841474" lon="10.5665853"><ele>9.0</ele><time>2026-04-19T14:03:42.142Z</time></trkpt><trkpt lat="43.1848128" lon="10.5665068"><ele>8.666666666666666</ele><time>2026-04-19T14:03:46.166Z</time></trkpt><trkpt lat="43.1849778" lon="10.5664871"><ele>8.333333333333332</ele><time>2026-04-19T14:03:47.173Z</time></trkpt><trkpt lat="43.1851449" lon="10.5664676"><ele>8.0</ele><time>2026-04-19T14:03:48.165Z</time></trkpt><trkpt lat="43.1853141" lon="10.5664498"><ele>6.0</ele><time>2026-04-19T14:03:49.137Z</time></trkpt><trkpt lat="43.1858153" lon="10.5663872"><ele>6.0</ele><time>2026-04-19T14:03:52.173Z</time></trkpt><trkpt lat="43.1859797" lon="10.566364"><ele>6.0</ele><time>2026-04-19T14:03:53.14Z</time></trkpt><trkpt lat="43.186148" lon="10.5663415"><ele>6.0</ele><time>2026-04-19T14:03:54.146Z</time></trkpt><trkpt lat="43.1863141" lon="10.5663218"><ele>6.0</ele><time>2026-04-19T14:03:55.147Z</time></trkpt><trkpt lat="43.1864811" lon="10.5662997"><ele>6.0</ele><time>2026-04-19T14:03:56.146Z</time></trkpt><trkpt lat="43.1866536" lon="10.5662766"><ele>6.0</ele><time>2026-04-19T14:03:57.168Z</time></trkpt><trkpt lat="43.1871768" lon="10.5662085"><ele>6.0</ele><time>2026-04-19T14:04:00.14Z</time></trkpt><trkpt lat="43.1873523" lon="10.5661851"><ele>6.0</ele><time>2026-04-19T14:04:01.135Z</time></trkpt><trkpt lat="43.1875269" lon="10.566162"><ele>6.0</ele><time>2026-04-19T14:04:02.142Z</time></trkpt><trkpt lat="43.1878614" lon="10.5661028"><ele>6.0</ele><time>2026-04-19T14:04:04.139Z</time></trkpt><trkpt lat="43.1880448" lon="10.5660756"><ele>6.0</ele><time>2026-04-19T14:04:05.147Z</time></trkpt><trkpt lat="43.18893" lon="10.5659488"><ele>5.666666666666667</ele><time>2026-04-19T14:04:10.168Z</time></trkpt><trkpt lat="43.189101" lon="10.5659246"><ele>5.333333333333334</ele><time>2026-04-19T14:04:11.156Z</time></trkpt><trkpt lat="43.1892787" lon="10.5659024"><ele>5.0</ele><time>2026-04-19T14:04:12.138Z</time></trkpt><trkpt lat="43.1894553" lon="10.5658822"><ele>5.0</ele><time>2026-04-19T14:04:13.14Z</time></trkpt><trkpt lat="43.189636" lon="10.5658605"><ele>5.0</ele><time>2026-04-19T14:04:14.163Z</time></trkpt><trkpt lat="43.1898092" lon="10.5658382"><ele>5.0</ele><time>2026-04-19T14:04:15.141Z</time></trkpt><trkpt lat="43.1899867" lon="10.5658158"><ele>5.666666666666667</ele><time>2026-04-19T14:04:16.143Z</time></trkpt><trkpt lat="43.190163" lon="10.5657931"><ele>6.333333333333334</ele><time>2026-04-19T14:04:17.149Z</time></trkpt><trkpt lat="43.1903395" lon="10.5657719"><ele>7.0</ele><time>2026-04-19T14:04:18.144Z</time></trkpt><trkpt lat="43.1905144" lon="10.5657512"><ele>7.0</ele><time>2026-04-19T14:04:19.149Z</time></trkpt><trkpt lat="43.1906946" lon="10.5657291"><ele>7.0</ele><time>2026-04-19T14:04:20.169Z</time></trkpt><trkpt lat="43.1908668" lon="10.5657066"><ele>7.0</ele><time>2026-04-19T14:04:21.142Z</time></trkpt><trkpt lat="43.1910463" lon="10.5656815"><ele>7.0</ele><time>2026-04-19T14:04:22.151Z</time></trkpt><trkpt lat="43.1912275" lon="10.5656557"><ele>7.0</ele><time>2026-04-19T14:04:23.145Z</time></trkpt><trkpt lat="43.1914086" lon="10.5656297"><ele>7.0</ele><time>2026-04-19T14:04:24.148Z</time></trkpt><trkpt lat="43.191595" lon="10.5656038"><ele>7.0</ele><time>2026-04-19T14:04:25.149Z</time></trkpt><trkpt lat="43.191783" lon="10.5655778"><ele>7.0</ele><time>2026-04-19T14:04:26.176Z</time></trkpt><trkpt lat="43.1919647" lon="10.5655524"><ele>7.0</ele><time>2026-04-19T14:04:27.148Z</time></trkpt><trkpt lat="43.1921499" lon="10.5655267"><ele>7.0</ele><time>2026-04-19T14:04:28.142Z</time></trkpt><trkpt lat="43.1923358" lon="10.5655014"><ele>7.0</ele><time>2026-04-19T14:04:29.155Z</time></trkpt><trkpt lat="43.1925175" lon="10.5654767"><ele>7.0</ele><time>2026-04-19T14:04:30.14Z</time></trkpt><trkpt lat="43.1926984" lon="10.5654557"><ele>6.333333333333334</ele><time>2026-04-19T14:04:31.144Z</time></trkpt><trkpt lat="43.1928811" lon="10.5654339"><ele>5.666666666666667</ele><time>2026-04-19T14:04:32.179Z</time></trkpt><trkpt lat="43.1930581" lon="10.5654124"><ele>5.0</ele><time>2026-04-19T14:04:33.139Z</time></trkpt><trkpt lat="43.1932399" lon="10.5653894"><ele>4.666666666666667</ele><time>2026-04-19T14:04:34.14Z</time></trkpt><trkpt lat="43.1934216" lon="10.565366"><ele>4.333333333333333</ele><time>2026-04-19T14:04:35.143Z</time></trkpt><trkpt lat="43.1936033" lon="10.5653432"><ele>4.0</ele><time>2026-04-19T14:04:36.141Z</time></trkpt><trkpt lat="43.193786" lon="10.5653217"><ele>4.666666666666666</ele><time>2026-04-19T14:04:37.137Z</time></trkpt><trkpt lat="43.1939696" lon="10.5653023"><ele>5.333333333333333</ele><time>2026-04-19T14:04:38.173Z</time></trkpt><trkpt lat="43.1941474" lon="10.5652822"><ele>6.0</ele><time>2026-04-19T14:04:39.171Z</time></trkpt><trkpt lat="43.1943213" lon="10.5652624"><ele>6.0</ele><time>2026-04-19T14:04:40.138Z</time></trkpt><trkpt lat="43.194498" lon="10.5652408"><ele>6.0</ele><time>2026-04-19T14:04:41.152Z</time></trkpt><trkpt lat="43.1946767" lon="10.5652154"><ele>6.0</ele><time>2026-04-19T14:04:42.147Z</time></trkpt><trkpt lat="43.1948581" lon="10.5651912"><ele>6.0</ele><time>2026-04-19T14:04:43.146Z</time></trkpt><trkpt lat="43.1950419" lon="10.5651672"><ele>6.0</ele><time>2026-04-19T14:04:44.17Z</time></trkpt><trkpt lat="43.1952215" lon="10.5651444"><ele>6.0</ele><time>2026-04-19T14:04:45.148Z</time></trkpt><trkpt lat="43.1954077" lon="10.5651198"><ele>6.0</ele><time>2026-04-19T14:04:46.143Z</time></trkpt><trkpt lat="43.1955947" lon="10.5650935"><ele>6.0</ele><time>2026-04-19T14:04:47.146Z</time></trkpt><trkpt lat="43.1957847" lon="10.565067"><ele>6.0</ele><time>2026-04-19T14:04:48.142Z</time></trkpt><trkpt lat="43.1961584" lon="10.5650167"><ele>6.0</ele><time>2026-04-19T14:04:50.139Z</time></trkpt><trkpt lat="43.196345" lon="10.5649921"><ele>6.0</ele><time>2026-04-19T14:04:51.15Z</time></trkpt><trkpt lat="43.1965304" lon="10.5649672"><ele>6.0</ele><time>2026-04-19T14:04:52.155Z</time></trkpt><trkpt lat="43.1967171" lon="10.5649453"><ele>6.0</ele><time>2026-04-19T14:04:53.156Z</time></trkpt><trkpt lat="43.1969007" lon="10.5649259"><ele>6.0</ele><time>2026-04-19T14:04:54.163Z</time></trkpt><trkpt lat="43.1970885" lon="10.5649046"><ele>6.0</ele><time>2026-04-19T14:04:55.141Z</time></trkpt><trkpt lat="43.1972768" lon="10.5648822"><ele>6.0</ele><time>2026-04-19T14:04:56.148Z</time></trkpt><trkpt lat="43.1974603" lon="10.564858"><ele>6.0</ele><time>2026-04-19T14:04:57.136Z</time></trkpt><trkpt lat="43.1976473" lon="10.564831"><ele>6.0</ele><time>2026-04-19T14:04:58.136Z</time></trkpt><trkpt lat="43.1978313" lon="10.5648049"><ele>6.0</ele><time>2026-04-19T14:04:59.135Z</time></trkpt><trkpt lat="43.198008" lon="10.564785"><ele>6.0</ele><time>2026-04-19T14:05:00.135Z</time></trkpt><trkpt lat="43.1981825" lon="10.5647645"><ele>6.0</ele><time>2026-04-19T14:05:01.139Z</time></trkpt><trkpt lat="43.1983623" lon="10.5647384"><ele>5.333333333333333</ele><time>2026-04-19T14:05:02.174Z</time></trkpt><trkpt lat="43.1985418" lon="10.5647111"><ele>4.666666666666666</ele><time>2026-04-19T14:05:03.133Z</time></trkpt><trkpt lat="43.1987244" lon="10.5646849"><ele>4.0</ele><time>2026-04-19T14:05:04.147Z</time></trkpt><trkpt lat="43.1989072" lon="10.5646601"><ele>4.666666666666666</ele><time>2026-04-19T14:05:05.14Z</time></trkpt><trkpt lat="43.1990867" lon="10.5646336"><ele>5.333333333333333</ele><time>2026-04-19T14:05:06.141Z</time></trkpt><trkpt lat="43.1992674" lon="10.5646082"><ele>6.0</ele><time>2026-04-19T14:05:07.136Z</time></trkpt><trkpt lat="43.1994446" lon="10.5645845"><ele>6.0</ele><time>2026-04-19T14:05:08.152Z</time></trkpt><trkpt lat="43.1996206" lon="10.5645632"><ele>6.0</ele><time>2026-04-19T14:05:09.155Z</time></trkpt><trkpt lat="43.1997961" lon="10.564541"><ele>6.0</ele><time>2026-04-19T14:05:10.136Z</time></trkpt><trkpt lat="43.1999751" lon="10.5645167"><ele>5.666666666666667</ele><time>2026-04-19T14:05:11.135Z</time></trkpt><trkpt lat="43.2001528" lon="10.5644931"><ele>5.333333333333334</ele><time>2026-04-19T14:05:12.137Z</time></trkpt><trkpt lat="43.2003292" lon="10.5644664"><ele>5.0</ele><time>2026-04-19T14:05:13.136Z</time></trkpt><trkpt lat="43.2005053" lon="10.5644391"><ele>5.0</ele><time>2026-04-19T14:05:14.177Z</time></trkpt><trkpt lat="43.2006735" lon="10.5644138"><ele>5.0</ele><time>2026-04-19T14:05:15.132Z</time></trkpt><trkpt lat="43.2008389" lon="10.5643893"><ele>5.0</ele><time>2026-04-19T14:05:16.146Z</time></trkpt><trkpt lat="43.2009954" lon="10.5643671"><ele>5.0</ele><time>2026-04-19T14:05:17.154Z</time></trkpt><trkpt lat="43.2011414" lon="10.5643471"><ele>5.0</ele><time>2026-04-19T14:05:18.144Z</time></trkpt><trkpt lat="43.2012818" lon="10.5643279"><ele>5.0</ele><time>2026-04-19T14:05:19.185Z</time></trkpt><trkpt lat="43.201404" lon="10.5643113"><ele>5.0</ele><time>2026-04-19T14:05:20.146Z</time></trkpt><trkpt lat="43.2015321" lon="10.5642939"><ele>5.0</ele><time>2026-04-19T14:05:21.148Z</time></trkpt><trkpt lat="43.201659" lon="10.5642794"><ele>5.0</ele><time>2026-04-19T14:05:22.141Z</time></trkpt><trkpt lat="43.2017917" lon="10.5642636"><ele>5.0</ele><time>2026-04-19T14:05:23.137Z</time></trkpt><trkpt lat="43.2019267" lon="10.5642437"><ele>5.0</ele><time>2026-04-19T14:05:24.145Z</time></trkpt><trkpt lat="43.2020549" lon="10.5642249"><ele>5.0</ele><time>2026-04-19T14:05:25.14Z</time></trkpt><trkpt lat="43.2021889" lon="10.5642063"><ele>5.0</ele><time>2026-04-19T14:05:26.156Z</time></trkpt><trkpt lat="43.2023144" lon="10.5641923"><ele>5.0</ele><time>2026-04-19T14:05:27.146Z</time></trkpt><trkpt lat="43.2024399" lon="10.564177"><ele>5.0</ele><time>2026-04-19T14:05:28.143Z</time></trkpt><trkpt lat="43.2025696" lon="10.5641614"><ele>5.5</ele><time>2026-04-19T14:05:29.147Z</time></trkpt><trkpt lat="43.2027017" lon="10.5641423"><ele>6.0</ele><time>2026-04-19T14:05:30.171Z</time></trkpt><trkpt lat="43.2028317" lon="10.564121"><ele>6.5</ele><time>2026-04-19T14:05:31.154Z</time></trkpt><trkpt lat="43.2029653" lon="10.5640973"><ele>7.0</ele><time>2026-04-19T14:05:32.172Z</time></trkpt><trkpt lat="43.2030918" lon="10.5640755"><ele>7.25</ele><time>2026-04-19T14:05:33.164Z</time></trkpt><trkpt lat="43.2032151" lon="10.5640546"><ele>7.5</ele><time>2026-04-19T14:05:34.157Z</time></trkpt><trkpt lat="43.2033441" lon="10.5640329"><ele>7.75</ele><time>2026-04-19T14:05:35.146Z</time></trkpt><trkpt lat="43.2034698" lon="10.5640116"><ele>8.0</ele><time>2026-04-19T14:05:36.135Z</time></trkpt><trkpt lat="43.2036023" lon="10.5639914"><ele>8.0</ele><time>2026-04-19T14:05:37.135Z</time></trkpt><trkpt lat="43.2037434" lon="10.5639751"><ele>8.0</ele><time>2026-04-19T14:05:38.137Z</time></trkpt><trkpt lat="43.2038805" lon="10.5639615"><ele>8.0</ele><time>2026-04-19T14:05:39.152Z</time></trkpt><trkpt lat="43.204014" lon="10.5639461"><ele>8.0</ele><time>2026-04-19T14:05:40.139Z</time></trkpt><trkpt lat="43.2041543" lon="10.5639287"><ele>8.0</ele><time>2026-04-19T14:05:41.18Z</time></trkpt><trkpt lat="43.2042911" lon="10.5639101"><ele>8.0</ele><time>2026-04-19T14:05:42.149Z</time></trkpt><trkpt lat="43.2044335" lon="10.5638921"><ele>8.0</ele><time>2026-04-19T14:05:43.14Z</time></trkpt><trkpt lat="43.2045729" lon="10.5638779"><ele>8.0</ele><time>2026-04-19T14:05:44.147Z</time></trkpt><trkpt lat="43.2047155" lon="10.5638638"><ele>8.0</ele><time>2026-04-19T14:05:45.155Z</time></trkpt><trkpt lat="43.2048637" lon="10.5638469"><ele>8.0</ele><time>2026-04-19T14:05:46.176Z</time></trkpt><trkpt lat="43.2050081" lon="10.5638299"><ele>8.0</ele><time>2026-04-19T14:05:47.155Z</time></trkpt><trkpt lat="43.2051524" lon="10.563815"><ele>8.0</ele><time>2026-04-19T14:05:48.13Z</time></trkpt><trkpt lat="43.2052956" lon="10.5638005"><ele>8.0</ele><time>2026-04-19T14:05:49.15Z</time></trkpt><trkpt lat="43.2054345" lon="10.5637835"><ele>8.0</ele><time>2026-04-19T14:05:50.144Z</time></trkpt><trkpt lat="43.2055703" lon="10.5637673"><ele>8.0</ele><time>2026-04-19T14:05:51.144Z</time></trkpt><trkpt lat="43.2057025" lon="10.5637524"><ele>8.0</ele><time>2026-04-19T14:05:52.14Z</time></trkpt><trkpt lat="43.2058418" lon="10.5637341"><ele>8.0</ele><time>2026-04-19T14:05:53.153Z</time></trkpt><trkpt lat="43.2059814" lon="10.5637165"><ele>8.0</ele><time>2026-04-19T14:05:54.149Z</time></trkpt><trkpt lat="43.2061227" lon="10.5636999"><ele>8.0</ele><time>2026-04-19T14:05:55.168Z</time></trkpt><trkpt lat="43.2062567" lon="10.5636843"><ele>8.0</ele><time>2026-04-19T14:05:56.152Z</time></trkpt><trkpt lat="43.2063962" lon="10.56367"><ele>8.0</ele><time>2026-04-19T14:05:57.139Z</time></trkpt><trkpt lat="43.2065341" lon="10.5636577"><ele>8.0</ele><time>2026-04-19T14:05:58.135Z</time></trkpt><trkpt lat="43.2066797" lon="10.5636376"><ele>8.0</ele><time>2026-04-19T14:05:59.159Z</time></trkpt><trkpt lat="43.2068368" lon="10.5636127"><ele>8.0</ele><time>2026-04-19T14:06:00.145Z</time></trkpt><trkpt lat="43.2070026" lon="10.5635886"><ele>8.0</ele><time>2026-04-19T14:06:01.135Z</time></trkpt><trkpt lat="43.2071774" lon="10.5635628"><ele>8.0</ele><time>2026-04-19T14:06:02.172Z</time></trkpt><trkpt lat="43.2073469" lon="10.5635391"><ele>8.0</ele><time>2026-04-19T14:06:03.139Z</time></trkpt><trkpt lat="43.2075212" lon="10.5635183"><ele>8.666666666666666</ele><time>2026-04-19T14:06:04.139Z</time></trkpt><trkpt lat="43.2076978" lon="10.5635003"><ele>9.333333333333334</ele><time>2026-04-19T14:06:05.138Z</time></trkpt><trkpt lat="43.2078729" lon="10.5634838"><ele>10.0</ele><time>2026-04-19T14:06:06.148Z</time></trkpt><trkpt lat="43.208049" lon="10.5634648"><ele>9.333333333333334</ele><time>2026-04-19T14:06:07.15Z</time></trkpt><trkpt lat="43.2082276" lon="10.5634346"><ele>8.666666666666666</ele><time>2026-04-19T14:06:08.175Z</time></trkpt><trkpt lat="43.2084107" lon="10.5634047"><ele>8.0</ele><time>2026-04-19T14:06:09.144Z</time></trkpt><trkpt lat="43.2086078" lon="10.5633756"><ele>8.0</ele><time>2026-04-19T14:06:10.186Z</time></trkpt><trkpt lat="43.2088013" lon="10.5633543"><ele>8.0</ele><time>2026-04-19T14:06:11.154Z</time></trkpt><trkpt lat="43.2089916" lon="10.5633426"><ele>8.0</ele><time>2026-04-19T14:06:12.152Z</time></trkpt><trkpt lat="43.2091869" lon="10.5633264"><ele>8.333333333333332</ele><time>2026-04-19T14:06:13.14Z</time></trkpt><trkpt lat="43.2093774" lon="10.5633076"><ele>8.666666666666666</ele><time>2026-04-19T14:06:14.146Z</time></trkpt><trkpt lat="43.2095623" lon="10.5632869"><ele>9.0</ele><time>2026-04-19T14:06:15.148Z</time></trkpt><trkpt lat="43.209731" lon="10.5632656"><ele>9.666666666666666</ele><time>2026-04-19T14:06:16.145Z</time></trkpt><trkpt lat="43.2099046" lon="10.5632443"><ele>10.333333333333332</ele><time>2026-04-19T14:06:17.145Z</time></trkpt><trkpt lat="43.2100744" lon="10.5632209"><ele>11.0</ele><time>2026-04-19T14:06:18.146Z</time></trkpt><trkpt lat="43.2102485" lon="10.5631958"><ele>11.0</ele><time>2026-04-19T14:06:19.148Z</time></trkpt><trkpt lat="43.2104205" lon="10.5631701"><ele>11.0</ele><time>2026-04-19T14:06:20.155Z</time></trkpt><trkpt lat="43.2105967" lon="10.5631423"><ele>11.0</ele><time>2026-04-19T14:06:21.17Z</time></trkpt><trkpt lat="43.2107656" lon="10.5631155"><ele>10.0</ele><time>2026-04-19T14:06:22.14Z</time></trkpt><trkpt lat="43.2109442" lon="10.563089"><ele>9.0</ele><time>2026-04-19T14:06:23.185Z</time></trkpt><trkpt lat="43.2111164" lon="10.5630623"><ele>8.0</ele><time>2026-04-19T14:06:24.142Z</time></trkpt><trkpt lat="43.2112944" lon="10.5630352"><ele>8.0</ele><time>2026-04-19T14:06:25.143Z</time></trkpt><trkpt lat="43.21147" lon="10.5630117"><ele>8.0</ele><time>2026-04-19T14:06:26.175Z</time></trkpt><trkpt lat="43.2116391" lon="10.5629882"><ele>8.0</ele><time>2026-04-19T14:06:27.156Z</time></trkpt><trkpt lat="43.2118107" lon="10.5629644"><ele>8.0</ele><time>2026-04-19T14:06:28.169Z</time></trkpt><trkpt lat="43.2119758" lon="10.5629412"><ele>8.0</ele><time>2026-04-19T14:06:29.171Z</time></trkpt><trkpt lat="43.2121387" lon="10.5629166"><ele>8.0</ele><time>2026-04-19T14:06:30.136Z</time></trkpt><trkpt lat="43.212302" lon="10.5628928"><ele>8.0</ele><time>2026-04-19T14:06:31.142Z</time></trkpt><trkpt lat="43.2124559" lon="10.5628712"><ele>8.0</ele><time>2026-04-19T14:06:32.142Z</time></trkpt><trkpt lat="43.2126019" lon="10.5628526"><ele>8.0</ele><time>2026-04-19T14:06:33.161Z</time></trkpt><trkpt lat="43.2127436" lon="10.5628331"><ele>8.0</ele><time>2026-04-19T14:06:34.189Z</time></trkpt><trkpt lat="43.2128814" lon="10.5628119"><ele>7.75</ele><time>2026-04-19T14:06:35.142Z</time></trkpt><trkpt lat="43.2130267" lon="10.5627894"><ele>7.5</ele><time>2026-04-19T14:06:36.145Z</time></trkpt><trkpt lat="43.2131762" lon="10.5627689"><ele>7.25</ele><time>2026-04-19T14:06:37.146Z</time></trkpt><trkpt lat="43.213326" lon="10.5627478"><ele>7.0</ele><time>2026-04-19T14:06:38.148Z</time></trkpt><trkpt lat="43.2134815" lon="10.562726"><ele>7.0</ele><time>2026-04-19T14:06:39.147Z</time></trkpt><trkpt lat="43.2136296" lon="10.5627061"><ele>7.0</ele><time>2026-04-19T14:06:40.136Z</time></trkpt><trkpt lat="43.2137769" lon="10.5626852"><ele>7.0</ele><time>2026-04-19T14:06:41.139Z</time></trkpt><trkpt lat="43.2139247" lon="10.562666"><ele>7.0</ele><time>2026-04-19T14:06:42.139Z</time></trkpt><trkpt lat="43.2140715" lon="10.5626488"><ele>7.333333333333334</ele><time>2026-04-19T14:06:43.155Z</time></trkpt><trkpt lat="43.2142212" lon="10.5626288"><ele>7.666666666666666</ele><time>2026-04-19T14:06:44.146Z</time></trkpt><trkpt lat="43.2143741" lon="10.5626093"><ele>8.0</ele><time>2026-04-19T14:06:45.145Z</time></trkpt><trkpt lat="43.2145292" lon="10.5625879"><ele>8.0</ele><time>2026-04-19T14:06:46.143Z</time></trkpt><trkpt lat="43.2146877" lon="10.5625654"><ele>8.0</ele><time>2026-04-19T14:06:47.139Z</time></trkpt><trkpt lat="43.2148539" lon="10.5625439"><ele>8.0</ele><time>2026-04-19T14:06:48.139Z</time></trkpt><trkpt lat="43.2150192" lon="10.5625224"><ele>7.666666666666666</ele><time>2026-04-19T14:06:49.149Z</time></trkpt><trkpt lat="43.2151832" lon="10.5625003"><ele>7.333333333333334</ele><time>2026-04-19T14:06:50.148Z</time></trkpt><trkpt lat="43.2153439" lon="10.5624808"><ele>7.0</ele><time>2026-04-19T14:06:51.148Z</time></trkpt><trkpt lat="43.2155004" lon="10.5624619"><ele>7.333333333333334</ele><time>2026-04-19T14:06:52.15Z</time></trkpt><trkpt lat="43.2156539" lon="10.562441"><ele>7.666666666666666</ele><time>2026-04-19T14:06:53.151Z</time></trkpt><trkpt lat="43.2158053" lon="10.5624167"><ele>8.0</ele><time>2026-04-19T14:06:54.137Z</time></trkpt><trkpt lat="43.2159553" lon="10.5623936"><ele>8.0</ele><time>2026-04-19T14:06:55.144Z</time></trkpt><trkpt lat="43.2161016" lon="10.5623725"><ele>8.0</ele><time>2026-04-19T14:06:56.142Z</time></trkpt><trkpt lat="43.2162477" lon="10.5623513"><ele>8.0</ele><time>2026-04-19T14:06:57.145Z</time></trkpt><trkpt lat="43.2163909" lon="10.5623318"><ele>8.0</ele><time>2026-04-19T14:06:58.137Z</time></trkpt><trkpt lat="43.2165323" lon="10.562311"><ele>8.25</ele><time>2026-04-19T14:06:59.142Z</time></trkpt><trkpt lat="43.2166737" lon="10.5622888"><ele>8.5</ele><time>2026-04-19T14:07:00.175Z</time></trkpt><trkpt lat="43.2168099" lon="10.56227"><ele>8.75</ele><time>2026-04-19T14:07:01.135Z</time></trkpt><trkpt lat="43.2169517" lon="10.5622503"><ele>9.0</ele><time>2026-04-19T14:07:02.179Z</time></trkpt><trkpt lat="43.2170896" lon="10.5622245"><ele>9.0</ele><time>2026-04-19T14:07:03.142Z</time></trkpt><trkpt lat="43.2172367" lon="10.5621911"><ele>9.0</ele><time>2026-04-19T14:07:04.143Z</time></trkpt><trkpt lat="43.2174033" lon="10.5621654"><ele>9.0</ele><time>2026-04-19T14:07:05.15Z</time></trkpt><trkpt lat="43.2175728" lon="10.5621481"><ele>9.666666666666666</ele><time>2026-04-19T14:07:06.166Z</time></trkpt><trkpt lat="43.2177391" lon="10.5621345"><ele>10.333333333333332</ele><time>2026-04-19T14:07:07.173Z</time></trkpt><trkpt lat="43.2179062" lon="10.5621164"><ele>11.0</ele><time>2026-04-19T14:07:08.14Z</time></trkpt><trkpt lat="43.2180626" lon="10.5620942"><ele>10.5</ele><time>2026-04-19T14:07:09.133Z</time></trkpt><trkpt lat="43.2182037" lon="10.5620654"><ele>10.0</ele><time>2026-04-19T14:07:10.182Z</time></trkpt><trkpt lat="43.2183224" lon="10.5620293"><ele>9.5</ele><time>2026-04-19T14:07:11.179Z</time></trkpt><trkpt lat="43.2185045" lon="10.5619994"><ele>9.0</ele><time>2026-04-19T14:07:12.133Z</time></trkpt><trkpt lat="43.21868" lon="10.5619841"><ele>8.666666666666666</ele><time>2026-04-19T14:07:13.152Z</time></trkpt><trkpt lat="43.218857" lon="10.561973"><ele>8.333333333333332</ele><time>2026-04-19T14:07:14.143Z</time></trkpt><trkpt lat="43.2190499" lon="10.5619539"><ele>8.0</ele><time>2026-04-19T14:07:15.149Z</time></trkpt><trkpt lat="43.2192624" lon="10.5619307"><ele>8.0</ele><time>2026-04-19T14:07:16.146Z</time></trkpt><trkpt lat="43.2194718" lon="10.5619065"><ele>8.0</ele><time>2026-04-19T14:07:17.137Z</time></trkpt><trkpt lat="43.2196584" lon="10.5618811"><ele>8.0</ele><time>2026-04-19T14:07:18.142Z</time></trkpt><trkpt lat="43.2198486" lon="10.5618539"><ele>8.0</ele><time>2026-04-19T14:07:19.144Z</time></trkpt><trkpt lat="43.2200364" lon="10.5618275"><ele>8.0</ele><time>2026-04-19T14:07:20.176Z</time></trkpt><trkpt lat="43.2202202" lon="10.561802"><ele>8.0</ele><time>2026-04-19T14:07:21.174Z</time></trkpt><trkpt lat="43.220399" lon="10.5617804"><ele>8.0</ele><time>2026-04-19T14:07:22.134Z</time></trkpt><trkpt lat="43.2205863" lon="10.561756"><ele>8.0</ele><time>2026-04-19T14:07:23.173Z</time></trkpt><trkpt lat="43.2207647" lon="10.5617348"><ele>8.0</ele><time>2026-04-19T14:07:24.141Z</time></trkpt><trkpt lat="43.2209492" lon="10.5617109"><ele>7.666666666666666</ele><time>2026-04-19T14:07:25.147Z</time></trkpt><trkpt lat="43.221135" lon="10.561686"><ele>7.333333333333334</ele><time>2026-04-19T14:07:26.135Z</time></trkpt><trkpt lat="43.2213198" lon="10.5616647"><ele>7.0</ele><time>2026-04-19T14:07:27.144Z</time></trkpt><trkpt lat="43.2215051" lon="10.5616425"><ele>7.666666666666667</ele><time>2026-04-19T14:07:28.172Z</time></trkpt><trkpt lat="43.2216832" lon="10.5616171"><ele>8.333333333333334</ele><time>2026-04-19T14:07:29.141Z</time></trkpt><trkpt lat="43.2218696" lon="10.5615906"><ele>9.0</ele><time>2026-04-19T14:07:30.148Z</time></trkpt><trkpt lat="43.2220505" lon="10.5615604"><ele>9.0</ele><time>2026-04-19T14:07:31.141Z</time></trkpt><trkpt lat="43.2222329" lon="10.5615254"><ele>9.0</ele><time>2026-04-19T14:07:32.138Z</time></trkpt><trkpt lat="43.2224167" lon="10.5614846"><ele>9.0</ele><time>2026-04-19T14:07:33.178Z</time></trkpt><trkpt lat="43.2225935" lon="10.5614365"><ele>8.666666666666666</ele><time>2026-04-19T14:07:34.165Z</time></trkpt><trkpt lat="43.222773" lon="10.5613815"><ele>8.333333333333332</ele><time>2026-04-19T14:07:35.149Z</time></trkpt><trkpt lat="43.2229598" lon="10.5613209"><ele>8.0</ele><time>2026-04-19T14:07:36.167Z</time></trkpt><trkpt lat="43.2231446" lon="10.5612608"><ele>7.666666666666666</ele><time>2026-04-19T14:07:37.148Z</time></trkpt><trkpt lat="43.2233312" lon="10.561201"><ele>7.333333333333334</ele><time>2026-04-19T14:07:38.144Z</time></trkpt><trkpt lat="43.2235208" lon="10.5611374"><ele>7.0</ele><time>2026-04-19T14:07:39.144Z</time></trkpt><trkpt lat="43.2237136" lon="10.5610719"><ele>7.333333333333334</ele><time>2026-04-19T14:07:40.176Z</time></trkpt><trkpt lat="43.2238972" lon="10.5610088"><ele>7.666666666666666</ele><time>2026-04-19T14:07:41.135Z</time></trkpt><trkpt lat="43.2240877" lon="10.5609411"><ele>8.0</ele><time>2026-04-19T14:07:42.18Z</time></trkpt><trkpt lat="43.2242667" lon="10.5608801"><ele>8.0</ele><time>2026-04-19T14:07:43.142Z</time></trkpt><trkpt lat="43.2244476" lon="10.5608151"><ele>8.0</ele><time>2026-04-19T14:07:44.141Z</time></trkpt><trkpt lat="43.2246316" lon="10.5607441"><ele>8.0</ele><time>2026-04-19T14:07:45.169Z</time></trkpt><trkpt lat="43.2248044" lon="10.5606731"><ele>8.0</ele><time>2026-04-19T14:07:46.134Z</time></trkpt><trkpt lat="43.2249754" lon="10.5605983"><ele>8.0</ele><time>2026-04-19T14:07:47.143Z</time></trkpt><trkpt lat="43.2251443" lon="10.5605194"><ele>8.0</ele><time>2026-04-19T14:07:48.172Z</time></trkpt><trkpt lat="43.2252999" lon="10.5604371"><ele>8.0</ele><time>2026-04-19T14:07:49.166Z</time></trkpt><trkpt lat="43.2254405" lon="10.5603671"><ele>8.0</ele><time>2026-04-19T14:07:50.168Z</time></trkpt><trkpt lat="43.2255665" lon="10.560303"><ele>8.0</ele><time>2026-04-19T14:07:51.133Z</time></trkpt><trkpt lat="43.2256855" lon="10.5602381"><ele>8.0</ele><time>2026-04-19T14:07:52.135Z</time></trkpt><trkpt lat="43.22579" lon="10.5601774"><ele>7.999999999999999</ele><time>2026-04-19T14:07:53.145Z</time></trkpt><trkpt lat="43.225873" lon="10.5601279"><ele>8.0</ele><time>2026-04-19T14:07:54.151Z</time></trkpt><trkpt lat="43.225936" lon="10.5600906"><ele>8.0</ele><time>2026-04-19T14:07:55.136Z</time></trkpt><trkpt lat="43.2260314" lon="10.5600701"><ele>8.0</ele><time>2026-04-19T14:07:58.152Z</time></trkpt><trkpt lat="43.2260473" lon="10.5601859"><ele>7.999999999999999</ele><time>2026-04-19T14:08:00.138Z</time></trkpt><trkpt lat="43.2260305" lon="10.5602956"><ele>8.0</ele><time>2026-04-19T14:08:02.132Z</time></trkpt><trkpt lat="43.2260351" lon="10.5604039"><ele>8.0</ele><time>2026-04-19T14:08:05.129Z</time></trkpt></trkseg></trk></gpx>